<?xml version="1.0" encoding="UTF-8" standalone="no" ?>
<gpx xmlns="http://www.topografix.com/GPX/1/1" xmlns:xsi="http://www.w3.org/2001/XMLSchema-instance" xsi:schemaLocation="http://www.topografix.com/GPX/1/1 http://www.topografix.com/GPX/1/1/gpx.xsd" version="1.1" creator="VisuGPX - https://www.visugpx.com">
  <metadata>
    <name>2009 LAGAHL</name>
    <desc><![CDATA[Lozère-Aveyron-Gard-Ardèche-Haute Loire]]></desc>
  </metadata>
  <trk>
    <name><![CDATA[A02]]></name>
    <trkseg>
      <trkpt lat="44.69379" lon="3.34402">
        <ele>986</ele>
        <time>2009-07-06T11:24:34Z</time>
      </trkpt>
      <trkpt lat="44.6938" lon="3.34404">
        <ele>982</ele>
        <time>2009-07-06T11:24:58Z</time>
      </trkpt>
      <trkpt lat="44.69379" lon="3.34404">
        <ele>981</ele>
        <time>2009-07-06T11:25:42Z</time>
      </trkpt>
      <trkpt lat="44.69379" lon="3.34404">
        <ele>980</ele>
        <time>2009-07-06T11:25:49Z</time>
      </trkpt>
      <trkpt lat="44.69379" lon="3.34404">
        <ele>981</ele>
        <time>2009-07-06T11:26:06Z</time>
      </trkpt>
      <trkpt lat="44.69379" lon="3.34404">
        <ele>979</ele>
        <time>2009-07-06T11:26:09Z</time>
      </trkpt>
      <trkpt lat="44.69379" lon="3.34404">
        <ele>981</ele>
        <time>2009-07-06T11:26:11Z</time>
      </trkpt>
      <trkpt lat="44.69379" lon="3.34404">
        <ele>980</ele>
        <time>2009-07-06T11:26:13Z</time>
      </trkpt>
      <trkpt lat="44.69378" lon="3.34407">
        <ele>980</ele>
        <time>2009-07-06T11:27:46Z</time>
      </trkpt>
      <trkpt lat="44.69376" lon="3.34404">
        <ele>978</ele>
        <time>2009-07-06T11:31:54Z</time>
      </trkpt>
      <trkpt lat="44.69374" lon="3.34402">
        <ele>979</ele>
        <time>2009-07-06T11:32:04Z</time>
      </trkpt>
      <trkpt lat="44.69367" lon="3.34392">
        <ele>980</ele>
        <time>2009-07-06T11:32:24Z</time>
      </trkpt>
      <trkpt lat="44.69369" lon="3.3439">
        <ele>981</ele>
        <time>2009-07-06T11:32:45Z</time>
      </trkpt>
      <trkpt lat="44.69362" lon="3.34379">
        <ele>982</ele>
        <time>2009-07-06T11:33:24Z</time>
      </trkpt>
      <trkpt lat="44.69337" lon="3.34375">
        <ele>983</ele>
        <time>2009-07-06T11:33:36Z</time>
      </trkpt>
      <trkpt lat="44.69309" lon="3.34389">
        <ele>981</ele>
        <time>2009-07-06T11:33:50Z</time>
      </trkpt>
      <trkpt lat="44.69291" lon="3.34419">
        <ele>985</ele>
        <time>2009-07-06T11:34:03Z</time>
      </trkpt>
      <trkpt lat="44.69281" lon="3.34464">
        <ele>988</ele>
        <time>2009-07-06T11:34:18Z</time>
      </trkpt>
      <trkpt lat="44.69254" lon="3.34502">
        <ele>989</ele>
        <time>2009-07-06T11:34:34Z</time>
      </trkpt>
      <trkpt lat="44.69252" lon="3.34503">
        <ele>988</ele>
        <time>2009-07-06T11:34:35Z</time>
      </trkpt>
      <trkpt lat="44.69241" lon="3.34496">
        <ele>989</ele>
        <time>2009-07-06T11:34:40Z</time>
      </trkpt>
      <trkpt lat="44.69214" lon="3.34484">
        <ele>990</ele>
        <time>2009-07-06T11:34:53Z</time>
      </trkpt>
      <trkpt lat="44.69178" lon="3.34521">
        <ele>993</ele>
        <time>2009-07-06T11:35:11Z</time>
      </trkpt>
      <trkpt lat="44.69138" lon="3.34582">
        <ele>995</ele>
        <time>2009-07-06T11:35:34Z</time>
      </trkpt>
      <trkpt lat="44.69122" lon="3.3461">
        <ele>998</ele>
        <time>2009-07-06T11:35:44Z</time>
      </trkpt>
      <trkpt lat="44.69095" lon="3.34655">
        <ele>1001</ele>
        <time>2009-07-06T11:36:02Z</time>
      </trkpt>
      <trkpt lat="44.69079" lon="3.34676">
        <ele>1004</ele>
        <time>2009-07-06T11:36:12Z</time>
      </trkpt>
      <trkpt lat="44.69066" lon="3.34708">
        <ele>1008</ele>
        <time>2009-07-06T11:36:26Z</time>
      </trkpt>
      <trkpt lat="44.69039" lon="3.34734">
        <ele>1010</ele>
        <time>2009-07-06T11:36:44Z</time>
      </trkpt>
      <trkpt lat="44.69015" lon="3.34718">
        <ele>1013</ele>
        <time>2009-07-06T11:36:58Z</time>
      </trkpt>
      <trkpt lat="44.68988" lon="3.3472">
        <ele>1016</ele>
        <time>2009-07-06T11:37:13Z</time>
      </trkpt>
      <trkpt lat="44.68973" lon="3.34737">
        <ele>1019</ele>
        <time>2009-07-06T11:37:25Z</time>
      </trkpt>
      <trkpt lat="44.68961" lon="3.34764">
        <ele>1023</ele>
        <time>2009-07-06T11:37:38Z</time>
      </trkpt>
      <trkpt lat="44.68957" lon="3.34771">
        <ele>1024</ele>
        <time>2009-07-06T11:37:42Z</time>
      </trkpt>
      <trkpt lat="44.68948" lon="3.34787">
        <ele>1027</ele>
        <time>2009-07-06T11:37:51Z</time>
      </trkpt>
      <trkpt lat="44.68934" lon="3.34806">
        <ele>1031</ele>
        <time>2009-07-06T11:38:03Z</time>
      </trkpt>
      <trkpt lat="44.68916" lon="3.34844">
        <ele>1033</ele>
        <time>2009-07-06T11:38:22Z</time>
      </trkpt>
      <trkpt lat="44.68904" lon="3.34899">
        <ele>1036</ele>
        <time>2009-07-06T11:38:42Z</time>
      </trkpt>
      <trkpt lat="44.6889" lon="3.3494">
        <ele>1039</ele>
        <time>2009-07-06T11:38:56Z</time>
      </trkpt>
      <trkpt lat="44.6886" lon="3.34979">
        <ele>1040</ele>
        <time>2009-07-06T11:39:13Z</time>
      </trkpt>
      <trkpt lat="44.68824" lon="3.35037">
        <ele>1042</ele>
        <time>2009-07-06T11:39:32Z</time>
      </trkpt>
      <trkpt lat="44.6881" lon="3.35101">
        <ele>1045</ele>
        <time>2009-07-06T11:39:49Z</time>
      </trkpt>
      <trkpt lat="44.68792" lon="3.35179">
        <ele>1047</ele>
        <time>2009-07-06T11:40:08Z</time>
      </trkpt>
      <trkpt lat="44.68776" lon="3.35264">
        <ele>1049</ele>
        <time>2009-07-06T11:40:28Z</time>
      </trkpt>
      <trkpt lat="44.68772" lon="3.35288">
        <ele>1049</ele>
        <time>2009-07-06T11:40:35Z</time>
      </trkpt>
      <trkpt lat="44.68774" lon="3.35294">
        <ele>1051</ele>
        <time>2009-07-06T11:40:51Z</time>
      </trkpt>
      <trkpt lat="44.68774" lon="3.35295">
        <ele>1051</ele>
        <time>2009-07-06T11:41:37Z</time>
      </trkpt>
      <trkpt lat="44.68774" lon="3.35297">
        <ele>1050</ele>
        <time>2009-07-06T11:42:02Z</time>
      </trkpt>
      <trkpt lat="44.68773" lon="3.35298">
        <ele>1050</ele>
        <time>2009-07-06T11:43:19Z</time>
      </trkpt>
      <trkpt lat="44.68773" lon="3.35298">
        <ele>1051</ele>
        <time>2009-07-06T11:43:49Z</time>
      </trkpt>
      <trkpt lat="44.68773" lon="3.353">
        <ele>1052</ele>
        <time>2009-07-06T11:44:14Z</time>
      </trkpt>
      <trkpt lat="44.68762" lon="3.35339">
        <ele>1052</ele>
        <time>2009-07-06T11:44:28Z</time>
      </trkpt>
      <trkpt lat="44.68744" lon="3.35405">
        <ele>1054</ele>
        <time>2009-07-06T11:44:46Z</time>
      </trkpt>
      <trkpt lat="44.68717" lon="3.35466">
        <ele>1057</ele>
        <time>2009-07-06T11:45:04Z</time>
      </trkpt>
      <trkpt lat="44.68691" lon="3.35508">
        <ele>1059</ele>
        <time>2009-07-06T11:45:20Z</time>
      </trkpt>
      <trkpt lat="44.68664" lon="3.35545">
        <ele>1061</ele>
        <time>2009-07-06T11:45:36Z</time>
      </trkpt>
      <trkpt lat="44.68631" lon="3.35586">
        <ele>1065</ele>
        <time>2009-07-06T11:45:53Z</time>
      </trkpt>
      <trkpt lat="44.68599" lon="3.35649">
        <ele>1066</ele>
        <time>2009-07-06T11:46:12Z</time>
      </trkpt>
      <trkpt lat="44.68559" lon="3.35763">
        <ele>1065</ele>
        <time>2009-07-06T11:46:34Z</time>
      </trkpt>
      <trkpt lat="44.68535" lon="3.3586">
        <ele>1063</ele>
        <time>2009-07-06T11:46:53Z</time>
      </trkpt>
      <trkpt lat="44.68505" lon="3.35952">
        <ele>1064</ele>
        <time>2009-07-06T11:47:13Z</time>
      </trkpt>
      <trkpt lat="44.68471" lon="3.36045">
        <ele>1066</ele>
        <time>2009-07-06T11:47:34Z</time>
      </trkpt>
      <trkpt lat="44.68448" lon="3.36093">
        <ele>1069</ele>
        <time>2009-07-06T11:47:47Z</time>
      </trkpt>
      <trkpt lat="44.68421" lon="3.3614">
        <ele>1072</ele>
        <time>2009-07-06T11:48:00Z</time>
      </trkpt>
      <trkpt lat="44.68395" lon="3.36178">
        <ele>1074</ele>
        <time>2009-07-06T11:48:11Z</time>
      </trkpt>
      <trkpt lat="44.68369" lon="3.36221">
        <ele>1075</ele>
        <time>2009-07-06T11:48:23Z</time>
      </trkpt>
      <trkpt lat="44.68352" lon="3.36268">
        <ele>1078</ele>
        <time>2009-07-06T11:48:35Z</time>
      </trkpt>
      <trkpt lat="44.68347" lon="3.36311">
        <ele>1081</ele>
        <time>2009-07-06T11:48:45Z</time>
      </trkpt>
      <trkpt lat="44.68345" lon="3.3634">
        <ele>1080</ele>
        <time>2009-07-06T11:48:51Z</time>
      </trkpt>
      <trkpt lat="44.68337" lon="3.36357">
        <ele>1079</ele>
        <time>2009-07-06T11:48:54Z</time>
      </trkpt>
      <trkpt lat="44.68331" lon="3.36369">
        <ele>1078</ele>
        <time>2009-07-06T11:48:56Z</time>
      </trkpt>
      <trkpt lat="44.68329" lon="3.36377">
        <ele>1078</ele>
        <time>2009-07-06T11:48:57Z</time>
      </trkpt>
      <trkpt lat="44.68327" lon="3.36393">
        <ele>1078</ele>
        <time>2009-07-06T11:48:59Z</time>
      </trkpt>
      <trkpt lat="44.68324" lon="3.36406">
        <ele>1078</ele>
        <time>2009-07-06T11:49:01Z</time>
      </trkpt>
      <trkpt lat="44.68299" lon="3.3646">
        <ele>1079</ele>
        <time>2009-07-06T11:49:11Z</time>
      </trkpt>
      <trkpt lat="44.68229" lon="3.36528">
        <ele>1081</ele>
        <time>2009-07-06T11:49:29Z</time>
      </trkpt>
      <trkpt lat="44.68226" lon="3.36531">
        <ele>1081</ele>
        <time>2009-07-06T11:49:30Z</time>
      </trkpt>
      <trkpt lat="44.68186" lon="3.3657">
        <ele>1082</ele>
        <time>2009-07-06T11:49:41Z</time>
      </trkpt>
      <trkpt lat="44.68169" lon="3.3659">
        <ele>1082</ele>
        <time>2009-07-06T11:49:46Z</time>
      </trkpt>
      <trkpt lat="44.68161" lon="3.36599">
        <ele>1080</ele>
        <time>2009-07-06T11:49:48Z</time>
      </trkpt>
      <trkpt lat="44.68133" lon="3.36628">
        <ele>1079</ele>
        <time>2009-07-06T11:49:54Z</time>
      </trkpt>
      <trkpt lat="44.68055" lon="3.36716">
        <ele>1075</ele>
        <time>2009-07-06T11:50:11Z</time>
      </trkpt>
      <trkpt lat="44.6805" lon="3.36721">
        <ele>1075</ele>
        <time>2009-07-06T11:50:12Z</time>
      </trkpt>
      <trkpt lat="44.68032" lon="3.3673">
        <ele>1074</ele>
        <time>2009-07-06T11:50:15Z</time>
      </trkpt>
      <trkpt lat="44.6802" lon="3.36732">
        <ele>1073</ele>
        <time>2009-07-06T11:50:17Z</time>
      </trkpt>
      <trkpt lat="44.67916" lon="3.36776">
        <ele>1074</ele>
        <time>2009-07-06T11:50:36Z</time>
      </trkpt>
      <trkpt lat="44.67905" lon="3.36782">
        <ele>1072</ele>
        <time>2009-07-06T11:50:38Z</time>
      </trkpt>
      <trkpt lat="44.67787" lon="3.36841">
        <ele>1070</ele>
        <time>2009-07-06T11:51:00Z</time>
      </trkpt>
      <trkpt lat="44.67703" lon="3.36909">
        <ele>1072</ele>
        <time>2009-07-06T11:51:18Z</time>
      </trkpt>
      <trkpt lat="44.67645" lon="3.36972">
        <ele>1072</ele>
        <time>2009-07-06T11:51:31Z</time>
      </trkpt>
      <trkpt lat="44.67625" lon="3.36989">
        <ele>1072</ele>
        <time>2009-07-06T11:51:35Z</time>
      </trkpt>
      <trkpt lat="44.67612" lon="3.37006">
        <ele>1072</ele>
        <time>2009-07-06T11:51:38Z</time>
      </trkpt>
      <trkpt lat="44.67532" lon="3.3711">
        <ele>1073</ele>
        <time>2009-07-06T11:51:57Z</time>
      </trkpt>
      <trkpt lat="44.67475" lon="3.37222">
        <ele>1073</ele>
        <time>2009-07-06T11:52:15Z</time>
      </trkpt>
      <trkpt lat="44.67455" lon="3.37274">
        <ele>1070</ele>
        <time>2009-07-06T11:52:22Z</time>
      </trkpt>
      <trkpt lat="44.67452" lon="3.37281">
        <ele>1070</ele>
        <time>2009-07-06T11:52:23Z</time>
      </trkpt>
      <trkpt lat="44.67435" lon="3.3732">
        <ele>1070</ele>
        <time>2009-07-06T11:52:31Z</time>
      </trkpt>
      <trkpt lat="44.67422" lon="3.37365">
        <ele>1070</ele>
        <time>2009-07-06T11:52:42Z</time>
      </trkpt>
      <trkpt lat="44.67427" lon="3.37437">
        <ele>1073</ele>
        <time>2009-07-06T11:52:56Z</time>
      </trkpt>
      <trkpt lat="44.67425" lon="3.37484">
        <ele>1076</ele>
        <time>2009-07-06T11:53:07Z</time>
      </trkpt>
      <trkpt lat="44.6742" lon="3.37534">
        <ele>1079</ele>
        <time>2009-07-06T11:53:21Z</time>
      </trkpt>
      <trkpt lat="44.67416" lon="3.37563">
        <ele>1082</ele>
        <time>2009-07-06T11:53:30Z</time>
      </trkpt>
      <trkpt lat="44.67416" lon="3.37567">
        <ele>1082</ele>
        <time>2009-07-06T11:53:31Z</time>
      </trkpt>
      <trkpt lat="44.67419" lon="3.37594">
        <ele>1086</ele>
        <time>2009-07-06T11:53:39Z</time>
      </trkpt>
      <trkpt lat="44.67419" lon="3.37597">
        <ele>1086</ele>
        <time>2009-07-06T11:53:40Z</time>
      </trkpt>
      <trkpt lat="44.67417" lon="3.37641">
        <ele>1087</ele>
        <time>2009-07-06T11:53:52Z</time>
      </trkpt>
      <trkpt lat="44.6742" lon="3.3768">
        <ele>1088</ele>
        <time>2009-07-06T11:54:03Z</time>
      </trkpt>
      <trkpt lat="44.67413" lon="3.37724">
        <ele>1090</ele>
        <time>2009-07-06T11:54:15Z</time>
      </trkpt>
      <trkpt lat="44.67393" lon="3.37774">
        <ele>1092</ele>
        <time>2009-07-06T11:54:28Z</time>
      </trkpt>
      <trkpt lat="44.67375" lon="3.37828">
        <ele>1094</ele>
        <time>2009-07-06T11:54:42Z</time>
      </trkpt>
      <trkpt lat="44.67351" lon="3.37882">
        <ele>1096</ele>
        <time>2009-07-06T11:54:56Z</time>
      </trkpt>
      <trkpt lat="44.67307" lon="3.37934">
        <ele>1098</ele>
        <time>2009-07-06T11:55:13Z</time>
      </trkpt>
      <trkpt lat="44.67259" lon="3.37977">
        <ele>1101</ele>
        <time>2009-07-06T11:55:30Z</time>
      </trkpt>
      <trkpt lat="44.67239" lon="3.3801">
        <ele>1104</ele>
        <time>2009-07-06T11:55:40Z</time>
      </trkpt>
      <trkpt lat="44.67203" lon="3.38093">
        <ele>1105</ele>
        <time>2009-07-06T11:56:00Z</time>
      </trkpt>
      <trkpt lat="44.67172" lon="3.38183">
        <ele>1107</ele>
        <time>2009-07-06T11:56:18Z</time>
      </trkpt>
      <trkpt lat="44.67168" lon="3.38193">
        <ele>1108</ele>
        <time>2009-07-06T11:56:20Z</time>
      </trkpt>
      <trkpt lat="44.67121" lon="3.38291">
        <ele>1109</ele>
        <time>2009-07-06T11:56:41Z</time>
      </trkpt>
      <trkpt lat="44.6709" lon="3.3839">
        <ele>1105</ele>
        <time>2009-07-06T11:56:58Z</time>
      </trkpt>
      <trkpt lat="44.67069" lon="3.38457">
        <ele>1102</ele>
        <time>2009-07-06T11:57:07Z</time>
      </trkpt>
      <trkpt lat="44.67027" lon="3.38564">
        <ele>1099</ele>
        <time>2009-07-06T11:57:21Z</time>
      </trkpt>
      <trkpt lat="44.67012" lon="3.38587">
        <ele>1099</ele>
        <time>2009-07-06T11:57:25Z</time>
      </trkpt>
      <trkpt lat="44.6699" lon="3.38607">
        <ele>1100</ele>
        <time>2009-07-06T11:57:34Z</time>
      </trkpt>
      <trkpt lat="44.66993" lon="3.38605">
        <ele>1100</ele>
        <time>2009-07-06T11:58:00Z</time>
      </trkpt>
      <trkpt lat="44.66994" lon="3.38607">
        <ele>1102</ele>
        <time>2009-07-06T11:58:34Z</time>
      </trkpt>
      <trkpt lat="44.66993" lon="3.38607">
        <ele>1101</ele>
        <time>2009-07-06T11:58:57Z</time>
      </trkpt>
      <trkpt lat="44.6699" lon="3.38607">
        <ele>1100</ele>
        <time>2009-07-06T12:01:26Z</time>
      </trkpt>
      <trkpt lat="44.66963" lon="3.38631">
        <ele>1101</ele>
        <time>2009-07-06T12:01:41Z</time>
      </trkpt>
      <trkpt lat="44.6692" lon="3.38655">
        <ele>1102</ele>
        <time>2009-07-06T12:01:57Z</time>
      </trkpt>
      <trkpt lat="44.66861" lon="3.38669">
        <ele>1104</ele>
        <time>2009-07-06T12:02:15Z</time>
      </trkpt>
      <trkpt lat="44.66839" lon="3.38708">
        <ele>1105</ele>
        <time>2009-07-06T12:02:25Z</time>
      </trkpt>
      <trkpt lat="44.66805" lon="3.38752">
        <ele>1107</ele>
        <time>2009-07-06T12:02:38Z</time>
      </trkpt>
      <trkpt lat="44.66759" lon="3.38835">
        <ele>1109</ele>
        <time>2009-07-06T12:02:58Z</time>
      </trkpt>
      <trkpt lat="44.6674" lon="3.38858">
        <ele>1109</ele>
        <time>2009-07-06T12:03:05Z</time>
      </trkpt>
      <trkpt lat="44.66724" lon="3.38866">
        <ele>1109</ele>
        <time>2009-07-06T12:03:09Z</time>
      </trkpt>
      <trkpt lat="44.66667" lon="3.38888">
        <ele>1107</ele>
        <time>2009-07-06T12:03:20Z</time>
      </trkpt>
      <trkpt lat="44.66642" lon="3.38904">
        <ele>1107</ele>
        <time>2009-07-06T12:03:25Z</time>
      </trkpt>
      <trkpt lat="44.66569" lon="3.38947">
        <ele>1107</ele>
        <time>2009-07-06T12:03:40Z</time>
      </trkpt>
      <trkpt lat="44.66559" lon="3.38953">
        <ele>1108</ele>
        <time>2009-07-06T12:03:42Z</time>
      </trkpt>
      <trkpt lat="44.66509" lon="3.38983">
        <ele>1107</ele>
        <time>2009-07-06T12:03:52Z</time>
      </trkpt>
      <trkpt lat="44.66464" lon="3.39026">
        <ele>1107</ele>
        <time>2009-07-06T12:04:02Z</time>
      </trkpt>
      <trkpt lat="44.66418" lon="3.39059">
        <ele>1107</ele>
        <time>2009-07-06T12:04:12Z</time>
      </trkpt>
      <trkpt lat="44.66365" lon="3.3907">
        <ele>1107</ele>
        <time>2009-07-06T12:04:22Z</time>
      </trkpt>
      <trkpt lat="44.66337" lon="3.39071">
        <ele>1108</ele>
        <time>2009-07-06T12:04:27Z</time>
      </trkpt>
      <trkpt lat="44.66239" lon="3.39074">
        <ele>1107</ele>
        <time>2009-07-06T12:04:44Z</time>
      </trkpt>
      <trkpt lat="44.66201" lon="3.3908">
        <ele>1108</ele>
        <time>2009-07-06T12:04:51Z</time>
      </trkpt>
      <trkpt lat="44.66174" lon="3.39096">
        <ele>1109</ele>
        <time>2009-07-06T12:04:57Z</time>
      </trkpt>
      <trkpt lat="44.66166" lon="3.39103">
        <ele>1109</ele>
        <time>2009-07-06T12:04:59Z</time>
      </trkpt>
      <trkpt lat="44.66159" lon="3.39111">
        <ele>1110</ele>
        <time>2009-07-06T12:05:01Z</time>
      </trkpt>
      <trkpt lat="44.6615" lon="3.39125">
        <ele>1112</ele>
        <time>2009-07-06T12:05:04Z</time>
      </trkpt>
      <trkpt lat="44.66143" lon="3.39134">
        <ele>1113</ele>
        <time>2009-07-06T12:05:06Z</time>
      </trkpt>
      <trkpt lat="44.66136" lon="3.39142">
        <ele>1114</ele>
        <time>2009-07-06T12:05:08Z</time>
      </trkpt>
      <trkpt lat="44.6612" lon="3.39155">
        <ele>1114</ele>
        <time>2009-07-06T12:05:12Z</time>
      </trkpt>
      <trkpt lat="44.66099" lon="3.39175">
        <ele>1113</ele>
        <time>2009-07-06T12:05:17Z</time>
      </trkpt>
      <trkpt lat="44.66088" lon="3.39181">
        <ele>1112</ele>
        <time>2009-07-06T12:05:19Z</time>
      </trkpt>
      <trkpt lat="44.66077" lon="3.39185">
        <ele>1112</ele>
        <time>2009-07-06T12:05:21Z</time>
      </trkpt>
      <trkpt lat="44.66049" lon="3.3921">
        <ele>1112</ele>
        <time>2009-07-06T12:05:27Z</time>
      </trkpt>
      <trkpt lat="44.66024" lon="3.39253">
        <ele>1111</ele>
        <time>2009-07-06T12:05:38Z</time>
      </trkpt>
      <trkpt lat="44.66014" lon="3.39288">
        <ele>1111</ele>
        <time>2009-07-06T12:05:52Z</time>
      </trkpt>
      <trkpt lat="44.66002" lon="3.39328">
        <ele>1110</ele>
        <time>2009-07-06T12:06:05Z</time>
      </trkpt>
      <trkpt lat="44.65985" lon="3.39389">
        <ele>1109</ele>
        <time>2009-07-06T12:06:18Z</time>
      </trkpt>
      <trkpt lat="44.65966" lon="3.39451">
        <ele>1108</ele>
        <time>2009-07-06T12:06:31Z</time>
      </trkpt>
      <trkpt lat="44.65946" lon="3.39495">
        <ele>1107</ele>
        <time>2009-07-06T12:06:40Z</time>
      </trkpt>
      <trkpt lat="44.65907" lon="3.39586">
        <ele>1106</ele>
        <time>2009-07-06T12:06:55Z</time>
      </trkpt>
      <trkpt lat="44.65856" lon="3.39651">
        <ele>1107</ele>
        <time>2009-07-06T12:07:09Z</time>
      </trkpt>
      <trkpt lat="44.65817" lon="3.39683">
        <ele>1108</ele>
        <time>2009-07-06T12:07:19Z</time>
      </trkpt>
      <trkpt lat="44.65788" lon="3.39697">
        <ele>1109</ele>
        <time>2009-07-06T12:07:26Z</time>
      </trkpt>
      <trkpt lat="44.65776" lon="3.39706">
        <ele>1110</ele>
        <time>2009-07-06T12:07:29Z</time>
      </trkpt>
      <trkpt lat="44.65765" lon="3.3972">
        <ele>1108</ele>
        <time>2009-07-06T12:07:32Z</time>
      </trkpt>
      <trkpt lat="44.65703" lon="3.39761">
        <ele>1105</ele>
        <time>2009-07-06T12:07:43Z</time>
      </trkpt>
      <trkpt lat="44.65618" lon="3.39847">
        <ele>1103</ele>
        <time>2009-07-06T12:07:59Z</time>
      </trkpt>
      <trkpt lat="44.65549" lon="3.39906">
        <ele>1102</ele>
        <time>2009-07-06T12:08:12Z</time>
      </trkpt>
      <trkpt lat="44.6549" lon="3.39943">
        <ele>1104</ele>
        <time>2009-07-06T12:08:24Z</time>
      </trkpt>
      <trkpt lat="44.65473" lon="3.39956">
        <ele>1104</ele>
        <time>2009-07-06T12:08:33Z</time>
      </trkpt>
      <trkpt lat="44.65473" lon="3.39956">
        <ele>1103</ele>
        <time>2009-07-06T12:09:08Z</time>
      </trkpt>
      <trkpt lat="44.65454" lon="3.39969">
        <ele>1102</ele>
        <time>2009-07-06T12:09:29Z</time>
      </trkpt>
      <trkpt lat="44.6545" lon="3.39971">
        <ele>1102</ele>
        <time>2009-07-06T12:09:30Z</time>
      </trkpt>
      <trkpt lat="44.65443" lon="3.39977">
        <ele>1101</ele>
        <time>2009-07-06T12:09:32Z</time>
      </trkpt>
      <trkpt lat="44.65423" lon="3.39997">
        <ele>1101</ele>
        <time>2009-07-06T12:09:37Z</time>
      </trkpt>
      <trkpt lat="44.65413" lon="3.40013">
        <ele>1101</ele>
        <time>2009-07-06T12:09:40Z</time>
      </trkpt>
      <trkpt lat="44.65407" lon="3.40023">
        <ele>1101</ele>
        <time>2009-07-06T12:09:42Z</time>
      </trkpt>
      <trkpt lat="44.65395" lon="3.40047">
        <ele>1100</ele>
        <time>2009-07-06T12:09:46Z</time>
      </trkpt>
      <trkpt lat="44.65348" lon="3.4011">
        <ele>1097</ele>
        <time>2009-07-06T12:09:57Z</time>
      </trkpt>
      <trkpt lat="44.65329" lon="3.40137">
        <ele>1097</ele>
        <time>2009-07-06T12:10:02Z</time>
      </trkpt>
      <trkpt lat="44.65315" lon="3.40158">
        <ele>1096</ele>
        <time>2009-07-06T12:10:06Z</time>
      </trkpt>
      <trkpt lat="44.65263" lon="3.40237">
        <ele>1096</ele>
        <time>2009-07-06T12:10:21Z</time>
      </trkpt>
      <trkpt lat="44.65252" lon="3.4026">
        <ele>1095</ele>
        <time>2009-07-06T12:10:25Z</time>
      </trkpt>
      <trkpt lat="44.65244" lon="3.40288">
        <ele>1095</ele>
        <time>2009-07-06T12:10:29Z</time>
      </trkpt>
      <trkpt lat="44.65244" lon="3.40316">
        <ele>1095</ele>
        <time>2009-07-06T12:10:33Z</time>
      </trkpt>
      <trkpt lat="44.65243" lon="3.40347">
        <ele>1093</ele>
        <time>2009-07-06T12:10:37Z</time>
      </trkpt>
      <trkpt lat="44.65247" lon="3.40407">
        <ele>1091</ele>
        <time>2009-07-06T12:10:44Z</time>
      </trkpt>
      <trkpt lat="44.65241" lon="3.4046">
        <ele>1091</ele>
        <time>2009-07-06T12:10:50Z</time>
      </trkpt>
      <trkpt lat="44.65233" lon="3.40547">
        <ele>1090</ele>
        <time>2009-07-06T12:11:01Z</time>
      </trkpt>
      <trkpt lat="44.65228" lon="3.40588">
        <ele>1091</ele>
        <time>2009-07-06T12:11:07Z</time>
      </trkpt>
      <trkpt lat="44.65223" lon="3.40607">
        <ele>1092</ele>
        <time>2009-07-06T12:11:10Z</time>
      </trkpt>
      <trkpt lat="44.65219" lon="3.40618">
        <ele>1093</ele>
        <time>2009-07-06T12:11:12Z</time>
      </trkpt>
      <trkpt lat="44.65216" lon="3.40636">
        <ele>1092</ele>
        <time>2009-07-06T12:11:15Z</time>
      </trkpt>
      <trkpt lat="44.65209" lon="3.40657">
        <ele>1090</ele>
        <time>2009-07-06T12:11:18Z</time>
      </trkpt>
      <trkpt lat="44.65206" lon="3.40664">
        <ele>1089</ele>
        <time>2009-07-06T12:11:19Z</time>
      </trkpt>
      <trkpt lat="44.65188" lon="3.40691">
        <ele>1086</ele>
        <time>2009-07-06T12:11:23Z</time>
      </trkpt>
      <trkpt lat="44.65179" lon="3.40709">
        <ele>1085</ele>
        <time>2009-07-06T12:11:25Z</time>
      </trkpt>
      <trkpt lat="44.65157" lon="3.40741">
        <ele>1085</ele>
        <time>2009-07-06T12:11:29Z</time>
      </trkpt>
      <trkpt lat="44.65104" lon="3.40796">
        <ele>1086</ele>
        <time>2009-07-06T12:11:39Z</time>
      </trkpt>
      <trkpt lat="44.65082" lon="3.40829">
        <ele>1086</ele>
        <time>2009-07-06T12:11:45Z</time>
      </trkpt>
      <trkpt lat="44.65068" lon="3.40843">
        <ele>1086</ele>
        <time>2009-07-06T12:11:49Z</time>
      </trkpt>
      <trkpt lat="44.65047" lon="3.40872">
        <ele>1085</ele>
        <time>2009-07-06T12:11:55Z</time>
      </trkpt>
      <trkpt lat="44.65014" lon="3.40928">
        <ele>1081</ele>
        <time>2009-07-06T12:12:04Z</time>
      </trkpt>
      <trkpt lat="44.64986" lon="3.40975">
        <ele>1078</ele>
        <time>2009-07-06T12:12:10Z</time>
      </trkpt>
      <trkpt lat="44.64968" lon="3.41007">
        <ele>1076</ele>
        <time>2009-07-06T12:12:14Z</time>
      </trkpt>
      <trkpt lat="44.64948" lon="3.41038">
        <ele>1074</ele>
        <time>2009-07-06T12:12:18Z</time>
      </trkpt>
      <trkpt lat="44.64942" lon="3.41065">
        <ele>1072</ele>
        <time>2009-07-06T12:12:21Z</time>
      </trkpt>
      <trkpt lat="44.64941" lon="3.41087">
        <ele>1070</ele>
        <time>2009-07-06T12:12:23Z</time>
      </trkpt>
      <trkpt lat="44.64929" lon="3.41154">
        <ele>1065</ele>
        <time>2009-07-06T12:12:29Z</time>
      </trkpt>
      <trkpt lat="44.64919" lon="3.4119">
        <ele>1063</ele>
        <time>2009-07-06T12:12:32Z</time>
      </trkpt>
      <trkpt lat="44.64916" lon="3.412">
        <ele>1063</ele>
        <time>2009-07-06T12:12:33Z</time>
      </trkpt>
      <trkpt lat="44.64915" lon="3.41235">
        <ele>1062</ele>
        <time>2009-07-06T12:12:37Z</time>
      </trkpt>
      <trkpt lat="44.64916" lon="3.41262">
        <ele>1058</ele>
        <time>2009-07-06T12:12:41Z</time>
      </trkpt>
      <trkpt lat="44.64915" lon="3.41266">
        <ele>1058</ele>
        <time>2009-07-06T12:12:42Z</time>
      </trkpt>
      <trkpt lat="44.64909" lon="3.4127">
        <ele>1058</ele>
        <time>2009-07-06T12:12:45Z</time>
      </trkpt>
      <trkpt lat="44.64883" lon="3.41281">
        <ele>1057</ele>
        <time>2009-07-06T12:12:59Z</time>
      </trkpt>
      <trkpt lat="44.6487" lon="3.41289">
        <ele>1054</ele>
        <time>2009-07-06T12:13:05Z</time>
      </trkpt>
      <trkpt lat="44.64867" lon="3.4129">
        <ele>1054</ele>
        <time>2009-07-06T12:13:06Z</time>
      </trkpt>
      <trkpt lat="44.6486" lon="3.41295">
        <ele>1054</ele>
        <time>2009-07-06T12:13:09Z</time>
      </trkpt>
      <trkpt lat="44.64859" lon="3.41324">
        <ele>1053</ele>
        <time>2009-07-06T12:13:21Z</time>
      </trkpt>
      <trkpt lat="44.64859" lon="3.41325">
        <ele>1054</ele>
        <time>2009-07-06T12:13:48Z</time>
      </trkpt>
      <trkpt lat="44.64859" lon="3.41327">
        <ele>1053</ele>
        <time>2009-07-06T12:14:27Z</time>
      </trkpt>
      <trkpt lat="44.64861" lon="3.4134">
        <ele>1052</ele>
        <time>2009-07-06T12:14:55Z</time>
      </trkpt>
      <trkpt lat="44.64864" lon="3.41391">
        <ele>1052</ele>
        <time>2009-07-06T12:15:09Z</time>
      </trkpt>
      <trkpt lat="44.64873" lon="3.41449">
        <ele>1054</ele>
        <time>2009-07-06T12:15:22Z</time>
      </trkpt>
      <trkpt lat="44.6488" lon="3.41465">
        <ele>1058</ele>
        <time>2009-07-06T12:15:26Z</time>
      </trkpt>
      <trkpt lat="44.64899" lon="3.41515">
        <ele>1061</ele>
        <time>2009-07-06T12:15:39Z</time>
      </trkpt>
      <trkpt lat="44.64894" lon="3.41568">
        <ele>1061</ele>
        <time>2009-07-06T12:15:50Z</time>
      </trkpt>
      <trkpt lat="44.64892" lon="3.41581">
        <ele>1060</ele>
        <time>2009-07-06T12:15:52Z</time>
      </trkpt>
      <trkpt lat="44.64878" lon="3.41641">
        <ele>1053</ele>
        <time>2009-07-06T12:15:59Z</time>
      </trkpt>
      <trkpt lat="44.64875" lon="3.41652">
        <ele>1053</ele>
        <time>2009-07-06T12:16:00Z</time>
      </trkpt>
      <trkpt lat="44.64843" lon="3.41757">
        <ele>1052</ele>
        <time>2009-07-06T12:16:10Z</time>
      </trkpt>
      <trkpt lat="44.64833" lon="3.41773">
        <ele>1053</ele>
        <time>2009-07-06T12:16:12Z</time>
      </trkpt>
      <trkpt lat="44.64793" lon="3.41847">
        <ele>1053</ele>
        <time>2009-07-06T12:16:23Z</time>
      </trkpt>
      <trkpt lat="44.64764" lon="3.41917">
        <ele>1053</ele>
        <time>2009-07-06T12:16:38Z</time>
      </trkpt>
      <trkpt lat="44.64769" lon="3.41968">
        <ele>1053</ele>
        <time>2009-07-06T12:16:48Z</time>
      </trkpt>
      <trkpt lat="44.6477" lon="3.42026">
        <ele>1055</ele>
        <time>2009-07-06T12:17:00Z</time>
      </trkpt>
      <trkpt lat="44.64764" lon="3.4208">
        <ele>1056</ele>
        <time>2009-07-06T12:17:12Z</time>
      </trkpt>
      <trkpt lat="44.64784" lon="3.42127">
        <ele>1057</ele>
        <time>2009-07-06T12:17:24Z</time>
      </trkpt>
      <trkpt lat="44.64785" lon="3.42128">
        <ele>1057</ele>
        <time>2009-07-06T12:17:31Z</time>
      </trkpt>
      <trkpt lat="44.64786" lon="3.42135">
        <ele>1056</ele>
        <time>2009-07-06T12:17:34Z</time>
      </trkpt>
      <trkpt lat="44.64789" lon="3.42142">
        <ele>1055</ele>
        <time>2009-07-06T12:17:36Z</time>
      </trkpt>
      <trkpt lat="44.64808" lon="3.42216">
        <ele>1056</ele>
        <time>2009-07-06T12:17:52Z</time>
      </trkpt>
      <trkpt lat="44.64829" lon="3.42292">
        <ele>1057</ele>
        <time>2009-07-06T12:18:08Z</time>
      </trkpt>
      <trkpt lat="44.64835" lon="3.42301">
        <ele>1058</ele>
        <time>2009-07-06T12:18:11Z</time>
      </trkpt>
      <trkpt lat="44.64849" lon="3.4235">
        <ele>1058</ele>
        <time>2009-07-06T12:18:22Z</time>
      </trkpt>
      <trkpt lat="44.64842" lon="3.42388">
        <ele>1058</ele>
        <time>2009-07-06T12:18:29Z</time>
      </trkpt>
      <trkpt lat="44.6484" lon="3.42388">
        <ele>1058</ele>
        <time>2009-07-06T12:18:39Z</time>
      </trkpt>
      <trkpt lat="44.64835" lon="3.42395">
        <ele>1059</ele>
        <time>2009-07-06T12:18:52Z</time>
      </trkpt>
      <trkpt lat="44.64826" lon="3.42408">
        <ele>1059</ele>
        <time>2009-07-06T12:19:09Z</time>
      </trkpt>
      <trkpt lat="44.64818" lon="3.42439">
        <ele>1058</ele>
        <time>2009-07-06T12:19:19Z</time>
      </trkpt>
      <trkpt lat="44.64817" lon="3.42443">
        <ele>1058</ele>
        <time>2009-07-06T12:19:20Z</time>
      </trkpt>
      <trkpt lat="44.6481" lon="3.42518">
        <ele>1058</ele>
        <time>2009-07-06T12:19:36Z</time>
      </trkpt>
      <trkpt lat="44.64791" lon="3.42579">
        <ele>1058</ele>
        <time>2009-07-06T12:19:49Z</time>
      </trkpt>
      <trkpt lat="44.64778" lon="3.42636">
        <ele>1059</ele>
        <time>2009-07-06T12:20:02Z</time>
      </trkpt>
      <trkpt lat="44.64757" lon="3.42654">
        <ele>1062</ele>
        <time>2009-07-06T12:20:12Z</time>
      </trkpt>
      <trkpt lat="44.64753" lon="3.42657">
        <ele>1062</ele>
        <time>2009-07-06T12:20:15Z</time>
      </trkpt>
      <trkpt lat="44.64742" lon="3.42658">
        <ele>1061</ele>
        <time>2009-07-06T12:20:25Z</time>
      </trkpt>
      <trkpt lat="44.64738" lon="3.42661">
        <ele>1061</ele>
        <time>2009-07-06T12:21:34Z</time>
      </trkpt>
      <trkpt lat="44.64704" lon="3.42659">
        <ele>1059</ele>
        <time>2009-07-06T12:21:45Z</time>
      </trkpt>
      <trkpt lat="44.64664" lon="3.42674">
        <ele>1060</ele>
        <time>2009-07-06T12:21:57Z</time>
      </trkpt>
      <trkpt lat="44.64636" lon="3.42726">
        <ele>1060</ele>
        <time>2009-07-06T12:22:10Z</time>
      </trkpt>
      <trkpt lat="44.64628" lon="3.42763">
        <ele>1062</ele>
        <time>2009-07-06T12:22:17Z</time>
      </trkpt>
      <trkpt lat="44.64614" lon="3.42837">
        <ele>1065</ele>
        <time>2009-07-06T12:22:32Z</time>
      </trkpt>
      <trkpt lat="44.64605" lon="3.42891">
        <ele>1068</ele>
        <time>2009-07-06T12:22:43Z</time>
      </trkpt>
      <trkpt lat="44.64594" lon="3.42958">
        <ele>1071</ele>
        <time>2009-07-06T12:22:57Z</time>
      </trkpt>
      <trkpt lat="44.64587" lon="3.43001">
        <ele>1073</ele>
        <time>2009-07-06T12:23:06Z</time>
      </trkpt>
      <trkpt lat="44.64571" lon="3.43077">
        <ele>1076</ele>
        <time>2009-07-06T12:23:22Z</time>
      </trkpt>
      <trkpt lat="44.64537" lon="3.4316">
        <ele>1076</ele>
        <time>2009-07-06T12:23:41Z</time>
      </trkpt>
      <trkpt lat="44.64525" lon="3.43237">
        <ele>1079</ele>
        <time>2009-07-06T12:23:56Z</time>
      </trkpt>
      <trkpt lat="44.64523" lon="3.43241">
        <ele>1079</ele>
        <time>2009-07-06T12:23:57Z</time>
      </trkpt>
      <trkpt lat="44.64506" lon="3.43271">
        <ele>1082</ele>
        <time>2009-07-06T12:24:04Z</time>
      </trkpt>
      <trkpt lat="44.64503" lon="3.43331">
        <ele>1084</ele>
        <time>2009-07-06T12:24:16Z</time>
      </trkpt>
      <trkpt lat="44.64517" lon="3.43357">
        <ele>1085</ele>
        <time>2009-07-06T12:24:22Z</time>
      </trkpt>
      <trkpt lat="44.6455" lon="3.43413">
        <ele>1088</ele>
        <time>2009-07-06T12:24:35Z</time>
      </trkpt>
      <trkpt lat="44.64564" lon="3.4344">
        <ele>1089</ele>
        <time>2009-07-06T12:24:41Z</time>
      </trkpt>
      <trkpt lat="44.64579" lon="3.43459">
        <ele>1087</ele>
        <time>2009-07-06T12:24:45Z</time>
      </trkpt>
      <trkpt lat="44.64612" lon="3.435">
        <ele>1084</ele>
        <time>2009-07-06T12:24:52Z</time>
      </trkpt>
      <trkpt lat="44.64653" lon="3.43547">
        <ele>1080</ele>
        <time>2009-07-06T12:24:59Z</time>
      </trkpt>
      <trkpt lat="44.64659" lon="3.43554">
        <ele>1080</ele>
        <time>2009-07-06T12:25:00Z</time>
      </trkpt>
      <trkpt lat="44.64709" lon="3.43611">
        <ele>1078</ele>
        <time>2009-07-06T12:25:08Z</time>
      </trkpt>
      <trkpt lat="44.64721" lon="3.43639">
        <ele>1076</ele>
        <time>2009-07-06T12:25:12Z</time>
      </trkpt>
      <trkpt lat="44.64728" lon="3.43667">
        <ele>1076</ele>
        <time>2009-07-06T12:25:16Z</time>
      </trkpt>
      <trkpt lat="44.64731" lon="3.437">
        <ele>1075</ele>
        <time>2009-07-06T12:25:21Z</time>
      </trkpt>
      <trkpt lat="44.64733" lon="3.43727">
        <ele>1076</ele>
        <time>2009-07-06T12:25:26Z</time>
      </trkpt>
      <trkpt lat="44.64722" lon="3.4376">
        <ele>1075</ele>
        <time>2009-07-06T12:25:32Z</time>
      </trkpt>
      <trkpt lat="44.64721" lon="3.43772">
        <ele>1076</ele>
        <time>2009-07-06T12:25:34Z</time>
      </trkpt>
      <trkpt lat="44.64701" lon="3.43807">
        <ele>1076</ele>
        <time>2009-07-06T12:25:41Z</time>
      </trkpt>
      <trkpt lat="44.64682" lon="3.43815">
        <ele>1077</ele>
        <time>2009-07-06T12:25:54Z</time>
      </trkpt>
      <trkpt lat="44.6468" lon="3.43814">
        <ele>1078</ele>
        <time>2009-07-06T12:26:19Z</time>
      </trkpt>
      <trkpt lat="44.6468" lon="3.43813">
        <ele>1078</ele>
        <time>2009-07-06T12:26:36Z</time>
      </trkpt>
      <trkpt lat="44.64652" lon="3.43809">
        <ele>1078</ele>
        <time>2009-07-06T12:26:47Z</time>
      </trkpt>
      <trkpt lat="44.64646" lon="3.4377">
        <ele>1078</ele>
        <time>2009-07-06T12:26:57Z</time>
      </trkpt>
      <trkpt lat="44.64635" lon="3.43734">
        <ele>1080</ele>
        <time>2009-07-06T12:27:08Z</time>
      </trkpt>
      <trkpt lat="44.64621" lon="3.43728">
        <ele>1082</ele>
        <time>2009-07-06T12:27:14Z</time>
      </trkpt>
      <trkpt lat="44.6459" lon="3.43733">
        <ele>1085</ele>
        <time>2009-07-06T12:27:28Z</time>
      </trkpt>
      <trkpt lat="44.64584" lon="3.43732">
        <ele>1086</ele>
        <time>2009-07-06T12:27:31Z</time>
      </trkpt>
      <trkpt lat="44.64576" lon="3.4373">
        <ele>1088</ele>
        <time>2009-07-06T12:27:35Z</time>
      </trkpt>
      <trkpt lat="44.64553" lon="3.43716">
        <ele>1091</ele>
        <time>2009-07-06T12:27:47Z</time>
      </trkpt>
      <trkpt lat="44.64527" lon="3.43711">
        <ele>1094</ele>
        <time>2009-07-06T12:27:59Z</time>
      </trkpt>
      <trkpt lat="44.64492" lon="3.43708">
        <ele>1098</ele>
        <time>2009-07-06T12:28:14Z</time>
      </trkpt>
      <trkpt lat="44.64489" lon="3.43708">
        <ele>1098</ele>
        <time>2009-07-06T12:28:15Z</time>
      </trkpt>
      <trkpt lat="44.64453" lon="3.43693">
        <ele>1101</ele>
        <time>2009-07-06T12:28:32Z</time>
      </trkpt>
      <trkpt lat="44.64433" lon="3.43686">
        <ele>1104</ele>
        <time>2009-07-06T12:28:42Z</time>
      </trkpt>
      <trkpt lat="44.64412" lon="3.4369">
        <ele>1107</ele>
        <time>2009-07-06T12:28:52Z</time>
      </trkpt>
      <trkpt lat="44.64408" lon="3.43691">
        <ele>1109</ele>
        <time>2009-07-06T12:28:54Z</time>
      </trkpt>
      <trkpt lat="44.64382" lon="3.43707">
        <ele>1111</ele>
        <time>2009-07-06T12:29:07Z</time>
      </trkpt>
      <trkpt lat="44.64354" lon="3.4374">
        <ele>1115</ele>
        <time>2009-07-06T12:29:25Z</time>
      </trkpt>
      <trkpt lat="44.64351" lon="3.43744">
        <ele>1116</ele>
        <time>2009-07-06T12:29:27Z</time>
      </trkpt>
      <trkpt lat="44.64303" lon="3.43769">
        <ele>1118</ele>
        <time>2009-07-06T12:29:44Z</time>
      </trkpt>
      <trkpt lat="44.64246" lon="3.43776">
        <ele>1119</ele>
        <time>2009-07-06T12:30:02Z</time>
      </trkpt>
      <trkpt lat="44.64203" lon="3.43765">
        <ele>1121</ele>
        <time>2009-07-06T12:30:16Z</time>
      </trkpt>
      <trkpt lat="44.64181" lon="3.43759">
        <ele>1123</ele>
        <time>2009-07-06T12:30:23Z</time>
      </trkpt>
      <trkpt lat="44.64143" lon="3.43736">
        <ele>1125</ele>
        <time>2009-07-06T12:30:36Z</time>
      </trkpt>
      <trkpt lat="44.64124" lon="3.43709">
        <ele>1129</ele>
        <time>2009-07-06T12:30:45Z</time>
      </trkpt>
      <trkpt lat="44.64117" lon="3.43701">
        <ele>1130</ele>
        <time>2009-07-06T12:30:48Z</time>
      </trkpt>
      <trkpt lat="44.64074" lon="3.43688">
        <ele>1132</ele>
        <time>2009-07-06T12:31:01Z</time>
      </trkpt>
      <trkpt lat="44.64046" lon="3.43696">
        <ele>1135</ele>
        <time>2009-07-06T12:31:10Z</time>
      </trkpt>
      <trkpt lat="44.64043" lon="3.43696">
        <ele>1135</ele>
        <time>2009-07-06T12:31:11Z</time>
      </trkpt>
      <trkpt lat="44.63997" lon="3.43696">
        <ele>1138</ele>
        <time>2009-07-06T12:31:28Z</time>
      </trkpt>
      <trkpt lat="44.63961" lon="3.43695">
        <ele>1142</ele>
        <time>2009-07-06T12:31:41Z</time>
      </trkpt>
      <trkpt lat="44.63958" lon="3.43696">
        <ele>1142</ele>
        <time>2009-07-06T12:31:42Z</time>
      </trkpt>
      <trkpt lat="44.63906" lon="3.43707">
        <ele>1144</ele>
        <time>2009-07-06T12:32:00Z</time>
      </trkpt>
      <trkpt lat="44.63864" lon="3.43709">
        <ele>1145</ele>
        <time>2009-07-06T12:32:14Z</time>
      </trkpt>
      <trkpt lat="44.63837" lon="3.43707">
        <ele>1148</ele>
        <time>2009-07-06T12:32:24Z</time>
      </trkpt>
      <trkpt lat="44.63792" lon="3.43712">
        <ele>1151</ele>
        <time>2009-07-06T12:32:42Z</time>
      </trkpt>
      <trkpt lat="44.63765" lon="3.43714">
        <ele>1153</ele>
        <time>2009-07-06T12:32:55Z</time>
      </trkpt>
      <trkpt lat="44.63726" lon="3.43712">
        <ele>1156</ele>
        <time>2009-07-06T12:33:10Z</time>
      </trkpt>
      <trkpt lat="44.63703" lon="3.43709">
        <ele>1160</ele>
        <time>2009-07-06T12:33:19Z</time>
      </trkpt>
      <trkpt lat="44.6367" lon="3.43718">
        <ele>1164</ele>
        <time>2009-07-06T12:33:34Z</time>
      </trkpt>
      <trkpt lat="44.63664" lon="3.43727">
        <ele>1164</ele>
        <time>2009-07-06T12:33:38Z</time>
      </trkpt>
      <trkpt lat="44.63655" lon="3.4374">
        <ele>1166</ele>
        <time>2009-07-06T12:33:44Z</time>
      </trkpt>
      <trkpt lat="44.63625" lon="3.43764">
        <ele>1169</ele>
        <time>2009-07-06T12:34:00Z</time>
      </trkpt>
      <trkpt lat="44.63599" lon="3.43776">
        <ele>1173</ele>
        <time>2009-07-06T12:34:11Z</time>
      </trkpt>
      <trkpt lat="44.63595" lon="3.43779">
        <ele>1174</ele>
        <time>2009-07-06T12:34:13Z</time>
      </trkpt>
      <trkpt lat="44.63549" lon="3.43805">
        <ele>1175</ele>
        <time>2009-07-06T12:34:30Z</time>
      </trkpt>
      <trkpt lat="44.63485" lon="3.43856">
        <ele>1174</ele>
        <time>2009-07-06T12:34:49Z</time>
      </trkpt>
      <trkpt lat="44.63436" lon="3.43872">
        <ele>1175</ele>
        <time>2009-07-06T12:35:01Z</time>
      </trkpt>
      <trkpt lat="44.63377" lon="3.43878">
        <ele>1179</ele>
        <time>2009-07-06T12:35:16Z</time>
      </trkpt>
      <trkpt lat="44.63345" lon="3.43912">
        <ele>1181</ele>
        <time>2009-07-06T12:35:29Z</time>
      </trkpt>
      <trkpt lat="44.6335" lon="3.43942">
        <ele>1181</ele>
        <time>2009-07-06T12:35:40Z</time>
      </trkpt>
      <trkpt lat="44.63352" lon="3.43941">
        <ele>1182</ele>
        <time>2009-07-06T12:36:31Z</time>
      </trkpt>
      <trkpt lat="44.63363" lon="3.43955">
        <ele>1182</ele>
        <time>2009-07-06T12:36:50Z</time>
      </trkpt>
      <trkpt lat="44.6337" lon="3.43964">
        <ele>1184</ele>
        <time>2009-07-06T12:37:02Z</time>
      </trkpt>
      <trkpt lat="44.63372" lon="3.43963">
        <ele>1182</ele>
        <time>2009-07-06T12:39:07Z</time>
      </trkpt>
      <trkpt lat="44.63372" lon="3.4396">
        <ele>1183</ele>
        <time>2009-07-06T12:39:55Z</time>
      </trkpt>
      <trkpt lat="44.63373" lon="3.43963">
        <ele>1183</ele>
        <time>2009-07-06T12:40:34Z</time>
      </trkpt>
      <trkpt lat="44.63382" lon="3.43974">
        <ele>1183</ele>
        <time>2009-07-06T12:40:46Z</time>
      </trkpt>
      <trkpt lat="44.63386" lon="3.43983">
        <ele>1184</ele>
        <time>2009-07-06T12:41:01Z</time>
      </trkpt>
      <trkpt lat="44.6339" lon="3.43983">
        <ele>1184</ele>
        <time>2009-07-06T12:41:23Z</time>
      </trkpt>
      <trkpt lat="44.63398" lon="3.43998">
        <ele>1184</ele>
        <time>2009-07-06T12:41:37Z</time>
      </trkpt>
      <trkpt lat="44.63404" lon="3.44007">
        <ele>1184</ele>
        <time>2009-07-06T12:41:49Z</time>
      </trkpt>
      <trkpt lat="44.63412" lon="3.44019">
        <ele>1182</ele>
        <time>2009-07-06T12:42:03Z</time>
      </trkpt>
      <trkpt lat="44.63443" lon="3.44067">
        <ele>1181</ele>
        <time>2009-07-06T12:42:18Z</time>
      </trkpt>
      <trkpt lat="44.63494" lon="3.44132">
        <ele>1180</ele>
        <time>2009-07-06T12:42:34Z</time>
      </trkpt>
      <trkpt lat="44.63539" lon="3.44232">
        <ele>1180</ele>
        <time>2009-07-06T12:42:53Z</time>
      </trkpt>
      <trkpt lat="44.63558" lon="3.44274">
        <ele>1181</ele>
        <time>2009-07-06T12:43:01Z</time>
      </trkpt>
      <trkpt lat="44.6357" lon="3.44328">
        <ele>1182</ele>
        <time>2009-07-06T12:43:10Z</time>
      </trkpt>
      <trkpt lat="44.63583" lon="3.44367">
        <ele>1180</ele>
        <time>2009-07-06T12:43:17Z</time>
      </trkpt>
      <trkpt lat="44.63582" lon="3.4441">
        <ele>1178</ele>
        <time>2009-07-06T12:43:23Z</time>
      </trkpt>
      <trkpt lat="44.63573" lon="3.44452">
        <ele>1176</ele>
        <time>2009-07-06T12:43:29Z</time>
      </trkpt>
      <trkpt lat="44.63567" lon="3.4448">
        <ele>1173</ele>
        <time>2009-07-06T12:43:32Z</time>
      </trkpt>
      <trkpt lat="44.63564" lon="3.44528">
        <ele>1169</ele>
        <time>2009-07-06T12:43:37Z</time>
      </trkpt>
      <trkpt lat="44.63564" lon="3.44537">
        <ele>1168</ele>
        <time>2009-07-06T12:43:38Z</time>
      </trkpt>
      <trkpt lat="44.63565" lon="3.44551">
        <ele>1167</ele>
        <time>2009-07-06T12:43:40Z</time>
      </trkpt>
      <trkpt lat="44.63575" lon="3.44575">
        <ele>1162</ele>
        <time>2009-07-06T12:43:44Z</time>
      </trkpt>
      <trkpt lat="44.6358" lon="3.44584">
        <ele>1158</ele>
        <time>2009-07-06T12:43:45Z</time>
      </trkpt>
      <trkpt lat="44.63593" lon="3.44602">
        <ele>1157</ele>
        <time>2009-07-06T12:43:47Z</time>
      </trkpt>
      <trkpt lat="44.63606" lon="3.44615">
        <ele>1155</ele>
        <time>2009-07-06T12:43:49Z</time>
      </trkpt>
      <trkpt lat="44.63615" lon="3.44647">
        <ele>1152</ele>
        <time>2009-07-06T12:43:53Z</time>
      </trkpt>
      <trkpt lat="44.63614" lon="3.44667">
        <ele>1151</ele>
        <time>2009-07-06T12:43:55Z</time>
      </trkpt>
      <trkpt lat="44.63615" lon="3.4471">
        <ele>1149</ele>
        <time>2009-07-06T12:43:59Z</time>
      </trkpt>
      <trkpt lat="44.63618" lon="3.44733">
        <ele>1147</ele>
        <time>2009-07-06T12:44:01Z</time>
      </trkpt>
      <trkpt lat="44.63626" lon="3.44769">
        <ele>1145</ele>
        <time>2009-07-06T12:44:04Z</time>
      </trkpt>
      <trkpt lat="44.63632" lon="3.44807">
        <ele>1141</ele>
        <time>2009-07-06T12:44:07Z</time>
      </trkpt>
      <trkpt lat="44.63633" lon="3.44862">
        <ele>1140</ele>
        <time>2009-07-06T12:44:13Z</time>
      </trkpt>
      <trkpt lat="44.6361" lon="3.44893">
        <ele>1137</ele>
        <time>2009-07-06T12:44:19Z</time>
      </trkpt>
      <trkpt lat="44.63589" lon="3.44902">
        <ele>1134</ele>
        <time>2009-07-06T12:44:23Z</time>
      </trkpt>
      <trkpt lat="44.6358" lon="3.44914">
        <ele>1132</ele>
        <time>2009-07-06T12:44:25Z</time>
      </trkpt>
      <trkpt lat="44.63567" lon="3.44955">
        <ele>1129</ele>
        <time>2009-07-06T12:44:29Z</time>
      </trkpt>
      <trkpt lat="44.63563" lon="3.4498">
        <ele>1127</ele>
        <time>2009-07-06T12:44:31Z</time>
      </trkpt>
      <trkpt lat="44.63561" lon="3.45015">
        <ele>1128</ele>
        <time>2009-07-06T12:44:34Z</time>
      </trkpt>
      <trkpt lat="44.63562" lon="3.45028">
        <ele>1129</ele>
        <time>2009-07-06T12:44:36Z</time>
      </trkpt>
      <trkpt lat="44.63568" lon="3.45028">
        <ele>1128</ele>
        <time>2009-07-06T12:44:38Z</time>
      </trkpt>
      <trkpt lat="44.63606" lon="3.45052">
        <ele>1129</ele>
        <time>2009-07-06T12:44:50Z</time>
      </trkpt>
      <trkpt lat="44.63646" lon="3.45102">
        <ele>1131</ele>
        <time>2009-07-06T12:45:06Z</time>
      </trkpt>
      <trkpt lat="44.63688" lon="3.45138">
        <ele>1134</ele>
        <time>2009-07-06T12:45:22Z</time>
      </trkpt>
      <trkpt lat="44.63712" lon="3.45148">
        <ele>1137</ele>
        <time>2009-07-06T12:45:31Z</time>
      </trkpt>
      <trkpt lat="44.63715" lon="3.45149">
        <ele>1138</ele>
        <time>2009-07-06T12:45:32Z</time>
      </trkpt>
      <trkpt lat="44.63728" lon="3.45161">
        <ele>1140</ele>
        <time>2009-07-06T12:45:38Z</time>
      </trkpt>
      <trkpt lat="44.63733" lon="3.45185">
        <ele>1143</ele>
        <time>2009-07-06T12:45:45Z</time>
      </trkpt>
      <trkpt lat="44.63728" lon="3.45239">
        <ele>1146</ele>
        <time>2009-07-06T12:46:01Z</time>
      </trkpt>
      <trkpt lat="44.6372" lon="3.45296">
        <ele>1150</ele>
        <time>2009-07-06T12:46:18Z</time>
      </trkpt>
      <trkpt lat="44.63712" lon="3.45343">
        <ele>1153</ele>
        <time>2009-07-06T12:46:32Z</time>
      </trkpt>
      <trkpt lat="44.63705" lon="3.4538">
        <ele>1157</ele>
        <time>2009-07-06T12:46:43Z</time>
      </trkpt>
      <trkpt lat="44.63698" lon="3.4542">
        <ele>1160</ele>
        <time>2009-07-06T12:46:56Z</time>
      </trkpt>
      <trkpt lat="44.63692" lon="3.45457">
        <ele>1163</ele>
        <time>2009-07-06T12:47:08Z</time>
      </trkpt>
      <trkpt lat="44.63687" lon="3.45498">
        <ele>1167</ele>
        <time>2009-07-06T12:47:21Z</time>
      </trkpt>
      <trkpt lat="44.63684" lon="3.45534">
        <ele>1170</ele>
        <time>2009-07-06T12:47:32Z</time>
      </trkpt>
      <trkpt lat="44.6368" lon="3.45599">
        <ele>1173</ele>
        <time>2009-07-06T12:47:51Z</time>
      </trkpt>
      <trkpt lat="44.63695" lon="3.45654">
        <ele>1175</ele>
        <time>2009-07-06T12:48:07Z</time>
      </trkpt>
      <trkpt lat="44.63694" lon="3.45747">
        <ele>1175</ele>
        <time>2009-07-06T12:48:27Z</time>
      </trkpt>
      <trkpt lat="44.63693" lon="3.45759">
        <ele>1175</ele>
        <time>2009-07-06T12:48:29Z</time>
      </trkpt>
      <trkpt lat="44.63691" lon="3.45779">
        <ele>1173</ele>
        <time>2009-07-06T12:48:32Z</time>
      </trkpt>
      <trkpt lat="44.63675" lon="3.45852">
        <ele>1172</ele>
        <time>2009-07-06T12:48:45Z</time>
      </trkpt>
      <trkpt lat="44.63671" lon="3.45862">
        <ele>1172</ele>
        <time>2009-07-06T12:48:58Z</time>
      </trkpt>
      <trkpt lat="44.63676" lon="3.45859">
        <ele>1172</ele>
        <time>2009-07-06T12:49:50Z</time>
      </trkpt>
      <trkpt lat="44.63671" lon="3.45874">
        <ele>1171</ele>
        <time>2009-07-06T12:50:33Z</time>
      </trkpt>
      <trkpt lat="44.63669" lon="3.4591">
        <ele>1167</ele>
        <time>2009-07-06T12:50:38Z</time>
      </trkpt>
      <trkpt lat="44.63673" lon="3.4595">
        <ele>1163</ele>
        <time>2009-07-06T12:50:42Z</time>
      </trkpt>
      <trkpt lat="44.63678" lon="3.45975">
        <ele>1159</ele>
        <time>2009-07-06T12:50:44Z</time>
      </trkpt>
      <trkpt lat="44.63687" lon="3.46016">
        <ele>1156</ele>
        <time>2009-07-06T12:50:47Z</time>
      </trkpt>
      <trkpt lat="44.63691" lon="3.46029">
        <ele>1155</ele>
        <time>2009-07-06T12:50:48Z</time>
      </trkpt>
      <trkpt lat="44.63676" lon="3.46124">
        <ele>1152</ele>
        <time>2009-07-06T12:50:55Z</time>
      </trkpt>
      <trkpt lat="44.63655" lon="3.46155">
        <ele>1150</ele>
        <time>2009-07-06T12:50:58Z</time>
      </trkpt>
      <trkpt lat="44.63648" lon="3.46166">
        <ele>1149</ele>
        <time>2009-07-06T12:50:59Z</time>
      </trkpt>
      <trkpt lat="44.63634" lon="3.46218">
        <ele>1147</ele>
        <time>2009-07-06T12:51:03Z</time>
      </trkpt>
      <trkpt lat="44.63605" lon="3.46304">
        <ele>1144</ele>
        <time>2009-07-06T12:51:10Z</time>
      </trkpt>
      <trkpt lat="44.63597" lon="3.4638">
        <ele>1143</ele>
        <time>2009-07-06T12:51:16Z</time>
      </trkpt>
      <trkpt lat="44.63609" lon="3.46536">
        <ele>1143</ele>
        <time>2009-07-06T12:51:30Z</time>
      </trkpt>
      <trkpt lat="44.6361" lon="3.46573">
        <ele>1143</ele>
        <time>2009-07-06T12:51:34Z</time>
      </trkpt>
      <trkpt lat="44.6363" lon="3.46622">
        <ele>1142</ele>
        <time>2009-07-06T12:51:41Z</time>
      </trkpt>
      <trkpt lat="44.63699" lon="3.46704">
        <ele>1141</ele>
        <time>2009-07-06T12:51:57Z</time>
      </trkpt>
      <trkpt lat="44.6371" lon="3.46714">
        <ele>1140</ele>
        <time>2009-07-06T12:52:00Z</time>
      </trkpt>
      <trkpt lat="44.63724" lon="3.46737">
        <ele>1137</ele>
        <time>2009-07-06T12:52:04Z</time>
      </trkpt>
      <trkpt lat="44.6373" lon="3.46775">
        <ele>1133</ele>
        <time>2009-07-06T12:52:08Z</time>
      </trkpt>
      <trkpt lat="44.63718" lon="3.46815">
        <ele>1129</ele>
        <time>2009-07-06T12:52:12Z</time>
      </trkpt>
      <trkpt lat="44.6371" lon="3.46824">
        <ele>1125</ele>
        <time>2009-07-06T12:52:13Z</time>
      </trkpt>
      <trkpt lat="44.63689" lon="3.46857">
        <ele>1121</ele>
        <time>2009-07-06T12:52:16Z</time>
      </trkpt>
      <trkpt lat="44.63684" lon="3.4687">
        <ele>1121</ele>
        <time>2009-07-06T12:52:17Z</time>
      </trkpt>
      <trkpt lat="44.63685" lon="3.46927">
        <ele>1117</ele>
        <time>2009-07-06T12:52:21Z</time>
      </trkpt>
      <trkpt lat="44.63697" lon="3.46951">
        <ele>1114</ele>
        <time>2009-07-06T12:52:23Z</time>
      </trkpt>
      <trkpt lat="44.63714" lon="3.47025">
        <ele>1111</ele>
        <time>2009-07-06T12:52:29Z</time>
      </trkpt>
      <trkpt lat="44.63697" lon="3.47054">
        <ele>1107</ele>
        <time>2009-07-06T12:52:33Z</time>
      </trkpt>
      <trkpt lat="44.63689" lon="3.47057">
        <ele>1106</ele>
        <time>2009-07-06T12:52:34Z</time>
      </trkpt>
      <trkpt lat="44.6366" lon="3.47096">
        <ele>1107</ele>
        <time>2009-07-06T12:52:42Z</time>
      </trkpt>
      <trkpt lat="44.63659" lon="3.47104">
        <ele>1109</ele>
        <time>2009-07-06T12:52:44Z</time>
      </trkpt>
      <trkpt lat="44.6365" lon="3.47148">
        <ele>1111</ele>
        <time>2009-07-06T12:52:58Z</time>
      </trkpt>
      <trkpt lat="44.63643" lon="3.47189">
        <ele>1114</ele>
        <time>2009-07-06T12:53:10Z</time>
      </trkpt>
      <trkpt lat="44.63651" lon="3.47213">
        <ele>1117</ele>
        <time>2009-07-06T12:53:18Z</time>
      </trkpt>
      <trkpt lat="44.63675" lon="3.47272">
        <ele>1119</ele>
        <time>2009-07-06T12:53:36Z</time>
      </trkpt>
      <trkpt lat="44.63707" lon="3.47329">
        <ele>1118</ele>
        <time>2009-07-06T12:53:52Z</time>
      </trkpt>
      <trkpt lat="44.63726" lon="3.47354">
        <ele>1115</ele>
        <time>2009-07-06T12:53:58Z</time>
      </trkpt>
      <trkpt lat="44.6373" lon="3.47361">
        <ele>1114</ele>
        <time>2009-07-06T12:53:59Z</time>
      </trkpt>
      <trkpt lat="44.63735" lon="3.47416">
        <ele>1110</ele>
        <time>2009-07-06T12:54:06Z</time>
      </trkpt>
      <trkpt lat="44.63733" lon="3.4745">
        <ele>1107</ele>
        <time>2009-07-06T12:54:11Z</time>
      </trkpt>
      <trkpt lat="44.6374" lon="3.47462">
        <ele>1106</ele>
        <time>2009-07-06T12:54:13Z</time>
      </trkpt>
      <trkpt lat="44.63745" lon="3.47502">
        <ele>1107</ele>
        <time>2009-07-06T12:54:20Z</time>
      </trkpt>
      <trkpt lat="44.63738" lon="3.47505">
        <ele>1107</ele>
        <time>2009-07-06T12:54:22Z</time>
      </trkpt>
      <trkpt lat="44.63678" lon="3.47512">
        <ele>1110</ele>
        <time>2009-07-06T12:54:41Z</time>
      </trkpt>
      <trkpt lat="44.63655" lon="3.47504">
        <ele>1114</ele>
        <time>2009-07-06T12:54:50Z</time>
      </trkpt>
      <trkpt lat="44.63635" lon="3.47506">
        <ele>1117</ele>
        <time>2009-07-06T12:54:59Z</time>
      </trkpt>
      <trkpt lat="44.63635" lon="3.47509">
        <ele>1117</ele>
        <time>2009-07-06T12:55:11Z</time>
      </trkpt>
      <trkpt lat="44.63635" lon="3.4751">
        <ele>1115</ele>
        <time>2009-07-06T12:55:41Z</time>
      </trkpt>
      <trkpt lat="44.63644" lon="3.47532">
        <ele>1115</ele>
        <time>2009-07-06T12:55:52Z</time>
      </trkpt>
      <trkpt lat="44.63637" lon="3.47535">
        <ele>1117</ele>
        <time>2009-07-06T12:55:56Z</time>
      </trkpt>
      <trkpt lat="44.6361" lon="3.47535">
        <ele>1120</ele>
        <time>2009-07-06T12:56:08Z</time>
      </trkpt>
      <trkpt lat="44.63608" lon="3.47535">
        <ele>1120</ele>
        <time>2009-07-06T12:56:09Z</time>
      </trkpt>
      <trkpt lat="44.6359" lon="3.47545">
        <ele>1123</ele>
        <time>2009-07-06T12:56:18Z</time>
      </trkpt>
      <trkpt lat="44.63569" lon="3.47562">
        <ele>1126</ele>
        <time>2009-07-06T12:56:30Z</time>
      </trkpt>
      <trkpt lat="44.63547" lon="3.47587">
        <ele>1129</ele>
        <time>2009-07-06T12:56:44Z</time>
      </trkpt>
      <trkpt lat="44.63529" lon="3.47612">
        <ele>1133</ele>
        <time>2009-07-06T12:56:57Z</time>
      </trkpt>
      <trkpt lat="44.63514" lon="3.47643">
        <ele>1136</ele>
        <time>2009-07-06T12:57:13Z</time>
      </trkpt>
      <trkpt lat="44.63498" lon="3.47678">
        <ele>1139</ele>
        <time>2009-07-06T12:57:29Z</time>
      </trkpt>
      <trkpt lat="44.6348" lon="3.47719">
        <ele>1142</ele>
        <time>2009-07-06T12:57:46Z</time>
      </trkpt>
      <trkpt lat="44.63459" lon="3.47761">
        <ele>1142</ele>
        <time>2009-07-06T12:58:04Z</time>
      </trkpt>
      <trkpt lat="44.63444" lon="3.47792">
        <ele>1145</ele>
        <time>2009-07-06T12:58:16Z</time>
      </trkpt>
      <trkpt lat="44.63439" lon="3.47807">
        <ele>1146</ele>
        <time>2009-07-06T12:58:23Z</time>
      </trkpt>
      <trkpt lat="44.63444" lon="3.47814">
        <ele>1145</ele>
        <time>2009-07-06T12:58:27Z</time>
      </trkpt>
      <trkpt lat="44.63468" lon="3.47829">
        <ele>1148</ele>
        <time>2009-07-06T12:58:44Z</time>
      </trkpt>
      <trkpt lat="44.6349" lon="3.47848">
        <ele>1152</ele>
        <time>2009-07-06T12:58:57Z</time>
      </trkpt>
      <trkpt lat="44.63494" lon="3.47851">
        <ele>1153</ele>
        <time>2009-07-06T12:58:59Z</time>
      </trkpt>
      <trkpt lat="44.63522" lon="3.47875">
        <ele>1156</ele>
        <time>2009-07-06T12:59:16Z</time>
      </trkpt>
      <trkpt lat="44.63553" lon="3.47896">
        <ele>1158</ele>
        <time>2009-07-06T12:59:33Z</time>
      </trkpt>
      <trkpt lat="44.63591" lon="3.47911">
        <ele>1158</ele>
        <time>2009-07-06T12:59:50Z</time>
      </trkpt>
      <trkpt lat="44.6363" lon="3.47928">
        <ele>1159</ele>
        <time>2009-07-06T13:00:08Z</time>
      </trkpt>
      <trkpt lat="44.63665" lon="3.47949">
        <ele>1159</ele>
        <time>2009-07-06T13:00:25Z</time>
      </trkpt>
      <trkpt lat="44.63694" lon="3.47973">
        <ele>1162</ele>
        <time>2009-07-06T13:00:42Z</time>
      </trkpt>
      <trkpt lat="44.63713" lon="3.47992">
        <ele>1164</ele>
        <time>2009-07-06T13:00:57Z</time>
      </trkpt>
      <trkpt lat="44.6373" lon="3.4801">
        <ele>1164</ele>
        <time>2009-07-06T13:01:14Z</time>
      </trkpt>
      <trkpt lat="44.63744" lon="3.48028">
        <ele>1166</ele>
        <time>2009-07-06T13:01:31Z</time>
      </trkpt>
      <trkpt lat="44.63756" lon="3.48048">
        <ele>1167</ele>
        <time>2009-07-06T13:01:48Z</time>
      </trkpt>
      <trkpt lat="44.63759" lon="3.48058">
        <ele>1169</ele>
        <time>2009-07-06T13:01:55Z</time>
      </trkpt>
      <trkpt lat="44.63765" lon="3.48079">
        <ele>1167</ele>
        <time>2009-07-06T13:02:09Z</time>
      </trkpt>
      <trkpt lat="44.63781" lon="3.48108">
        <ele>1164</ele>
        <time>2009-07-06T13:02:18Z</time>
      </trkpt>
      <trkpt lat="44.63783" lon="3.48113">
        <ele>1164</ele>
        <time>2009-07-06T13:02:19Z</time>
      </trkpt>
      <trkpt lat="44.63785" lon="3.48119">
        <ele>1163</ele>
        <time>2009-07-06T13:02:20Z</time>
      </trkpt>
      <trkpt lat="44.6379" lon="3.48138">
        <ele>1162</ele>
        <time>2009-07-06T13:02:23Z</time>
      </trkpt>
      <trkpt lat="44.63795" lon="3.4815">
        <ele>1160</ele>
        <time>2009-07-06T13:02:25Z</time>
      </trkpt>
      <trkpt lat="44.63808" lon="3.48204">
        <ele>1157</ele>
        <time>2009-07-06T13:02:31Z</time>
      </trkpt>
      <trkpt lat="44.63813" lon="3.48225">
        <ele>1155</ele>
        <time>2009-07-06T13:02:33Z</time>
      </trkpt>
      <trkpt lat="44.63848" lon="3.48304">
        <ele>1152</ele>
        <time>2009-07-06T13:02:42Z</time>
      </trkpt>
      <trkpt lat="44.63855" lon="3.48321">
        <ele>1150</ele>
        <time>2009-07-06T13:02:44Z</time>
      </trkpt>
      <trkpt lat="44.63874" lon="3.48379">
        <ele>1145</ele>
        <time>2009-07-06T13:02:50Z</time>
      </trkpt>
      <trkpt lat="44.63892" lon="3.48418">
        <ele>1144</ele>
        <time>2009-07-06T13:02:55Z</time>
      </trkpt>
      <trkpt lat="44.63917" lon="3.48441">
        <ele>1145</ele>
        <time>2009-07-06T13:03:01Z</time>
      </trkpt>
      <trkpt lat="44.63938" lon="3.48457">
        <ele>1144</ele>
        <time>2009-07-06T13:03:06Z</time>
      </trkpt>
      <trkpt lat="44.63968" lon="3.48487">
        <ele>1144</ele>
        <time>2009-07-06T13:03:12Z</time>
      </trkpt>
      <trkpt lat="44.63995" lon="3.48529">
        <ele>1138</ele>
        <time>2009-07-06T13:03:18Z</time>
      </trkpt>
      <trkpt lat="44.64013" lon="3.48557">
        <ele>1134</ele>
        <time>2009-07-06T13:03:22Z</time>
      </trkpt>
      <trkpt lat="44.64045" lon="3.48576">
        <ele>1127</ele>
        <time>2009-07-06T13:03:26Z</time>
      </trkpt>
      <trkpt lat="44.64053" lon="3.48584">
        <ele>1126</ele>
        <time>2009-07-06T13:03:27Z</time>
      </trkpt>
      <trkpt lat="44.64068" lon="3.48598">
        <ele>1125</ele>
        <time>2009-07-06T13:03:29Z</time>
      </trkpt>
      <trkpt lat="44.641" lon="3.48638">
        <ele>1125</ele>
        <time>2009-07-06T13:03:35Z</time>
      </trkpt>
      <trkpt lat="44.64128" lon="3.48652">
        <ele>1123</ele>
        <time>2009-07-06T13:03:40Z</time>
      </trkpt>
      <trkpt lat="44.6416" lon="3.48716">
        <ele>1121</ele>
        <time>2009-07-06T13:03:48Z</time>
      </trkpt>
      <trkpt lat="44.6417" lon="3.4873">
        <ele>1120</ele>
        <time>2009-07-06T13:03:50Z</time>
      </trkpt>
      <trkpt lat="44.64188" lon="3.48782">
        <ele>1118</ele>
        <time>2009-07-06T13:03:56Z</time>
      </trkpt>
      <trkpt lat="44.64195" lon="3.48795">
        <ele>1118</ele>
        <time>2009-07-06T13:03:58Z</time>
      </trkpt>
      <trkpt lat="44.64227" lon="3.48824">
        <ele>1119</ele>
        <time>2009-07-06T13:04:05Z</time>
      </trkpt>
      <trkpt lat="44.64238" lon="3.48829">
        <ele>1120</ele>
        <time>2009-07-06T13:04:08Z</time>
      </trkpt>
      <trkpt lat="44.64242" lon="3.48828">
        <ele>1121</ele>
        <time>2009-07-06T13:04:10Z</time>
      </trkpt>
      <trkpt lat="44.64244" lon="3.48827">
        <ele>1120</ele>
        <time>2009-07-06T13:04:11Z</time>
      </trkpt>
      <trkpt lat="44.64249" lon="3.48828">
        <ele>1120</ele>
        <time>2009-07-06T13:04:28Z</time>
      </trkpt>
      <trkpt lat="44.6425" lon="3.48829">
        <ele>1120</ele>
        <time>2009-07-06T13:04:42Z</time>
      </trkpt>
      <trkpt lat="44.64251" lon="3.48829">
        <ele>1120</ele>
        <time>2009-07-06T13:05:11Z</time>
      </trkpt>
      <trkpt lat="44.6425" lon="3.48828">
        <ele>1120</ele>
        <time>2009-07-06T13:05:46Z</time>
      </trkpt>
      <trkpt lat="44.64256" lon="3.48846">
        <ele>1120</ele>
        <time>2009-07-06T13:05:53Z</time>
      </trkpt>
      <trkpt lat="44.64254" lon="3.48913">
        <ele>1121</ele>
        <time>2009-07-06T13:06:10Z</time>
      </trkpt>
      <trkpt lat="44.64257" lon="3.48961">
        <ele>1123</ele>
        <time>2009-07-06T13:06:29Z</time>
      </trkpt>
      <trkpt lat="44.64238" lon="3.48983">
        <ele>1127</ele>
        <time>2009-07-06T13:06:42Z</time>
      </trkpt>
      <trkpt lat="44.64223" lon="3.49002">
        <ele>1130</ele>
        <time>2009-07-06T13:06:54Z</time>
      </trkpt>
      <trkpt lat="44.64226" lon="3.49038">
        <ele>1133</ele>
        <time>2009-07-06T13:07:09Z</time>
      </trkpt>
      <trkpt lat="44.64237" lon="3.49071">
        <ele>1136</ele>
        <time>2009-07-06T13:07:24Z</time>
      </trkpt>
      <trkpt lat="44.64252" lon="3.49103">
        <ele>1139</ele>
        <time>2009-07-06T13:07:40Z</time>
      </trkpt>
      <trkpt lat="44.64264" lon="3.49135">
        <ele>1142</ele>
        <time>2009-07-06T13:07:55Z</time>
      </trkpt>
      <trkpt lat="44.64265" lon="3.49145">
        <ele>1145</ele>
        <time>2009-07-06T13:07:59Z</time>
      </trkpt>
      <trkpt lat="44.64263" lon="3.49184">
        <ele>1148</ele>
        <time>2009-07-06T13:08:15Z</time>
      </trkpt>
      <trkpt lat="44.64261" lon="3.49223">
        <ele>1152</ele>
        <time>2009-07-06T13:08:31Z</time>
      </trkpt>
      <trkpt lat="44.64258" lon="3.49256">
        <ele>1154</ele>
        <time>2009-07-06T13:08:45Z</time>
      </trkpt>
      <trkpt lat="44.64256" lon="3.49266">
        <ele>1156</ele>
        <time>2009-07-06T13:08:49Z</time>
      </trkpt>
      <trkpt lat="44.64255" lon="3.49273">
        <ele>1158</ele>
        <time>2009-07-06T13:08:52Z</time>
      </trkpt>
      <trkpt lat="44.64251" lon="3.49304">
        <ele>1160</ele>
        <time>2009-07-06T13:09:05Z</time>
      </trkpt>
      <trkpt lat="44.64252" lon="3.49333">
        <ele>1164</ele>
        <time>2009-07-06T13:09:17Z</time>
      </trkpt>
      <trkpt lat="44.64259" lon="3.4936">
        <ele>1167</ele>
        <time>2009-07-06T13:09:28Z</time>
      </trkpt>
      <trkpt lat="44.64273" lon="3.49424">
        <ele>1168</ele>
        <time>2009-07-06T13:09:52Z</time>
      </trkpt>
      <trkpt lat="44.6427" lon="3.49465">
        <ele>1172</ele>
        <time>2009-07-06T13:10:06Z</time>
      </trkpt>
      <trkpt lat="44.64269" lon="3.4947">
        <ele>1173</ele>
        <time>2009-07-06T13:10:08Z</time>
      </trkpt>
      <trkpt lat="44.64262" lon="3.49531">
        <ele>1176</ele>
        <time>2009-07-06T13:10:29Z</time>
      </trkpt>
      <trkpt lat="44.64261" lon="3.49576">
        <ele>1177</ele>
        <time>2009-07-06T13:10:45Z</time>
      </trkpt>
      <trkpt lat="44.64266" lon="3.49625">
        <ele>1181</ele>
        <time>2009-07-06T13:11:02Z</time>
      </trkpt>
      <trkpt lat="44.64278" lon="3.4966">
        <ele>1184</ele>
        <time>2009-07-06T13:11:17Z</time>
      </trkpt>
      <trkpt lat="44.64291" lon="3.49699">
        <ele>1187</ele>
        <time>2009-07-06T13:11:32Z</time>
      </trkpt>
      <trkpt lat="44.64299" lon="3.49712">
        <ele>1189</ele>
        <time>2009-07-06T13:11:39Z</time>
      </trkpt>
      <trkpt lat="44.64324" lon="3.49757">
        <ele>1190</ele>
        <time>2009-07-06T13:11:58Z</time>
      </trkpt>
      <trkpt lat="44.64332" lon="3.49821">
        <ele>1190</ele>
        <time>2009-07-06T13:12:11Z</time>
      </trkpt>
      <trkpt lat="44.6432" lon="3.49847">
        <ele>1191</ele>
        <time>2009-07-06T13:12:23Z</time>
      </trkpt>
      <trkpt lat="44.64317" lon="3.49852">
        <ele>1192</ele>
        <time>2009-07-06T13:12:35Z</time>
      </trkpt>
      <trkpt lat="44.64317" lon="3.49853">
        <ele>1192</ele>
        <time>2009-07-06T13:13:08Z</time>
      </trkpt>
      <trkpt lat="44.64315" lon="3.49845">
        <ele>1192</ele>
        <time>2009-07-06T13:13:33Z</time>
      </trkpt>
      <trkpt lat="44.64318" lon="3.49846">
        <ele>1191</ele>
        <time>2009-07-06T13:13:57Z</time>
      </trkpt>
      <trkpt lat="44.64334" lon="3.49829">
        <ele>1192</ele>
        <time>2009-07-06T13:14:06Z</time>
      </trkpt>
      <trkpt lat="44.64336" lon="3.49814">
        <ele>1190</ele>
        <time>2009-07-06T13:14:21Z</time>
      </trkpt>
      <trkpt lat="44.64337" lon="3.49814">
        <ele>1190</ele>
        <time>2009-07-06T13:14:44Z</time>
      </trkpt>
      <trkpt lat="44.64337" lon="3.49813">
        <ele>1189</ele>
        <time>2009-07-06T13:15:46Z</time>
      </trkpt>
      <trkpt lat="44.6432" lon="3.49847">
        <ele>1191</ele>
        <time>2009-07-06T13:15:59Z</time>
      </trkpt>
      <trkpt lat="44.64311" lon="3.49857">
        <ele>1189</ele>
        <time>2009-07-06T13:16:03Z</time>
      </trkpt>
      <trkpt lat="44.64301" lon="3.49878">
        <ele>1192</ele>
        <time>2009-07-06T13:16:11Z</time>
      </trkpt>
      <trkpt lat="44.6429" lon="3.49899">
        <ele>1195</ele>
        <time>2009-07-06T13:16:22Z</time>
      </trkpt>
      <trkpt lat="44.64278" lon="3.49917">
        <ele>1198</ele>
        <time>2009-07-06T13:16:33Z</time>
      </trkpt>
      <trkpt lat="44.64263" lon="3.49938">
        <ele>1202</ele>
        <time>2009-07-06T13:16:46Z</time>
      </trkpt>
      <trkpt lat="44.64246" lon="3.49961">
        <ele>1205</ele>
        <time>2009-07-06T13:17:02Z</time>
      </trkpt>
      <trkpt lat="44.64245" lon="3.49963">
        <ele>1205</ele>
        <time>2009-07-06T13:17:03Z</time>
      </trkpt>
      <trkpt lat="44.64244" lon="3.4999">
        <ele>1209</ele>
        <time>2009-07-06T13:17:16Z</time>
      </trkpt>
      <trkpt lat="44.64243" lon="3.49993">
        <ele>1209</ele>
        <time>2009-07-06T13:17:17Z</time>
      </trkpt>
      <trkpt lat="44.64241" lon="3.50012">
        <ele>1212</ele>
        <time>2009-07-06T13:17:27Z</time>
      </trkpt>
      <trkpt lat="44.64236" lon="3.50047">
        <ele>1215</ele>
        <time>2009-07-06T13:17:45Z</time>
      </trkpt>
      <trkpt lat="44.64227" lon="3.50076">
        <ele>1217</ele>
        <time>2009-07-06T13:18:01Z</time>
      </trkpt>
      <trkpt lat="44.64224" lon="3.50097">
        <ele>1218</ele>
        <time>2009-07-06T13:18:19Z</time>
      </trkpt>
      <trkpt lat="44.6421" lon="3.50114">
        <ele>1217</ele>
        <time>2009-07-06T13:18:37Z</time>
      </trkpt>
      <trkpt lat="44.64157" lon="3.50143">
        <ele>1214</ele>
        <time>2009-07-06T13:18:53Z</time>
      </trkpt>
      <trkpt lat="44.64098" lon="3.50153">
        <ele>1218</ele>
        <time>2009-07-06T13:19:10Z</time>
      </trkpt>
      <trkpt lat="44.64095" lon="3.50154">
        <ele>1218</ele>
        <time>2009-07-06T13:19:11Z</time>
      </trkpt>
      <trkpt lat="44.64043" lon="3.50155">
        <ele>1220</ele>
        <time>2009-07-06T13:19:27Z</time>
      </trkpt>
      <trkpt lat="44.64004" lon="3.50169">
        <ele>1221</ele>
        <time>2009-07-06T13:19:41Z</time>
      </trkpt>
      <trkpt lat="44.63995" lon="3.50183">
        <ele>1222</ele>
        <time>2009-07-06T13:19:57Z</time>
      </trkpt>
      <trkpt lat="44.63994" lon="3.50184">
        <ele>1221</ele>
        <time>2009-07-06T13:20:16Z</time>
      </trkpt>
      <trkpt lat="44.63985" lon="3.50205">
        <ele>1223</ele>
        <time>2009-07-06T13:20:44Z</time>
      </trkpt>
      <trkpt lat="44.63979" lon="3.50236">
        <ele>1226</ele>
        <time>2009-07-06T13:20:54Z</time>
      </trkpt>
      <trkpt lat="44.63972" lon="3.5027">
        <ele>1229</ele>
        <time>2009-07-06T13:21:07Z</time>
      </trkpt>
      <trkpt lat="44.63972" lon="3.50287">
        <ele>1230</ele>
        <time>2009-07-06T13:21:13Z</time>
      </trkpt>
      <trkpt lat="44.63987" lon="3.50287">
        <ele>1233</ele>
        <time>2009-07-06T13:21:23Z</time>
      </trkpt>
      <trkpt lat="44.64016" lon="3.50259">
        <ele>1236</ele>
        <time>2009-07-06T13:21:40Z</time>
      </trkpt>
      <trkpt lat="44.64042" lon="3.50254">
        <ele>1240</ele>
        <time>2009-07-06T13:21:52Z</time>
      </trkpt>
      <trkpt lat="44.64049" lon="3.50259">
        <ele>1240</ele>
        <time>2009-07-06T13:21:56Z</time>
      </trkpt>
      <trkpt lat="44.64057" lon="3.5029">
        <ele>1243</ele>
        <time>2009-07-06T13:22:09Z</time>
      </trkpt>
      <trkpt lat="44.64074" lon="3.50328">
        <ele>1246</ele>
        <time>2009-07-06T13:22:26Z</time>
      </trkpt>
      <trkpt lat="44.6409" lon="3.50359">
        <ele>1249</ele>
        <time>2009-07-06T13:22:40Z</time>
      </trkpt>
      <trkpt lat="44.64122" lon="3.50374">
        <ele>1251</ele>
        <time>2009-07-06T13:22:57Z</time>
      </trkpt>
      <trkpt lat="44.64134" lon="3.50379">
        <ele>1255</ele>
        <time>2009-07-06T13:23:03Z</time>
      </trkpt>
      <trkpt lat="44.64168" lon="3.50389">
        <ele>1258</ele>
        <time>2009-07-06T13:23:21Z</time>
      </trkpt>
      <trkpt lat="44.6417" lon="3.50389">
        <ele>1258</ele>
        <time>2009-07-06T13:23:22Z</time>
      </trkpt>
      <trkpt lat="44.64174" lon="3.50387">
        <ele>1259</ele>
        <time>2009-07-06T13:23:24Z</time>
      </trkpt>
      <trkpt lat="44.64201" lon="3.50368">
        <ele>1262</ele>
        <time>2009-07-06T13:23:39Z</time>
      </trkpt>
      <trkpt lat="44.6424" lon="3.50362">
        <ele>1264</ele>
        <time>2009-07-06T13:23:57Z</time>
      </trkpt>
      <trkpt lat="44.64262" lon="3.50363">
        <ele>1267</ele>
        <time>2009-07-06T13:24:07Z</time>
      </trkpt>
      <trkpt lat="44.64267" lon="3.50368">
        <ele>1267</ele>
        <time>2009-07-06T13:24:10Z</time>
      </trkpt>
      <trkpt lat="44.64255" lon="3.5039">
        <ele>1269</ele>
        <time>2009-07-06T13:24:20Z</time>
      </trkpt>
      <trkpt lat="44.64243" lon="3.50411">
        <ele>1272</ele>
        <time>2009-07-06T13:24:29Z</time>
      </trkpt>
      <trkpt lat="44.64236" lon="3.5045">
        <ele>1275</ele>
        <time>2009-07-06T13:24:44Z</time>
      </trkpt>
      <trkpt lat="44.64235" lon="3.50479">
        <ele>1278</ele>
        <time>2009-07-06T13:24:54Z</time>
      </trkpt>
      <trkpt lat="44.64226" lon="3.50524">
        <ele>1281</ele>
        <time>2009-07-06T13:25:10Z</time>
      </trkpt>
      <trkpt lat="44.64207" lon="3.50587">
        <ele>1283</ele>
        <time>2009-07-06T13:25:32Z</time>
      </trkpt>
      <trkpt lat="44.64203" lon="3.5062">
        <ele>1285</ele>
        <time>2009-07-06T13:25:44Z</time>
      </trkpt>
      <trkpt lat="44.64207" lon="3.50621">
        <ele>1286</ele>
        <time>2009-07-06T13:25:46Z</time>
      </trkpt>
      <trkpt lat="44.64212" lon="3.50616">
        <ele>1287</ele>
        <time>2009-07-06T13:25:49Z</time>
      </trkpt>
      <trkpt lat="44.64233" lon="3.50587">
        <ele>1291</ele>
        <time>2009-07-06T13:26:03Z</time>
      </trkpt>
      <trkpt lat="44.64236" lon="3.50583">
        <ele>1290</ele>
        <time>2009-07-06T13:26:05Z</time>
      </trkpt>
      <trkpt lat="44.64243" lon="3.50604">
        <ele>1293</ele>
        <time>2009-07-06T13:26:16Z</time>
      </trkpt>
      <trkpt lat="44.64243" lon="3.50616">
        <ele>1293</ele>
        <time>2009-07-06T13:26:20Z</time>
      </trkpt>
      <trkpt lat="44.64245" lon="3.50638">
        <ele>1297</ele>
        <time>2009-07-06T13:26:27Z</time>
      </trkpt>
      <trkpt lat="44.64249" lon="3.50691">
        <ele>1300</ele>
        <time>2009-07-06T13:26:44Z</time>
      </trkpt>
      <trkpt lat="44.6425" lon="3.50698">
        <ele>1301</ele>
        <time>2009-07-06T13:26:46Z</time>
      </trkpt>
      <trkpt lat="44.6425" lon="3.50777">
        <ele>1303</ele>
        <time>2009-07-06T13:27:09Z</time>
      </trkpt>
      <trkpt lat="44.64238" lon="3.5084">
        <ele>1306</ele>
        <time>2009-07-06T13:27:27Z</time>
      </trkpt>
      <trkpt lat="44.64236" lon="3.50882">
        <ele>1309</ele>
        <time>2009-07-06T13:27:39Z</time>
      </trkpt>
      <trkpt lat="44.64243" lon="3.50945">
        <ele>1312</ele>
        <time>2009-07-06T13:27:56Z</time>
      </trkpt>
      <trkpt lat="44.64257" lon="3.51026">
        <ele>1314</ele>
        <time>2009-07-06T13:28:17Z</time>
      </trkpt>
      <trkpt lat="44.64282" lon="3.51082">
        <ele>1317</ele>
        <time>2009-07-06T13:28:35Z</time>
      </trkpt>
      <trkpt lat="44.64285" lon="3.51087">
        <ele>1318</ele>
        <time>2009-07-06T13:28:37Z</time>
      </trkpt>
      <trkpt lat="44.6431" lon="3.5112">
        <ele>1321</ele>
        <time>2009-07-06T13:28:51Z</time>
      </trkpt>
      <trkpt lat="44.64327" lon="3.51142">
        <ele>1324</ele>
        <time>2009-07-06T13:29:01Z</time>
      </trkpt>
      <trkpt lat="44.64364" lon="3.51185">
        <ele>1328</ele>
        <time>2009-07-06T13:29:21Z</time>
      </trkpt>
      <trkpt lat="44.64366" lon="3.51187">
        <ele>1328</ele>
        <time>2009-07-06T13:29:22Z</time>
      </trkpt>
      <trkpt lat="44.64401" lon="3.5121">
        <ele>1331</ele>
        <time>2009-07-06T13:29:38Z</time>
      </trkpt>
      <trkpt lat="44.64417" lon="3.51228">
        <ele>1333</ele>
        <time>2009-07-06T13:29:47Z</time>
      </trkpt>
      <trkpt lat="44.6443" lon="3.51258">
        <ele>1336</ele>
        <time>2009-07-06T13:29:58Z</time>
      </trkpt>
      <trkpt lat="44.64447" lon="3.51277">
        <ele>1339</ele>
        <time>2009-07-06T13:30:07Z</time>
      </trkpt>
      <trkpt lat="44.64485" lon="3.51316">
        <ele>1341</ele>
        <time>2009-07-06T13:30:25Z</time>
      </trkpt>
      <trkpt lat="44.64515" lon="3.51365">
        <ele>1342</ele>
        <time>2009-07-06T13:30:41Z</time>
      </trkpt>
      <trkpt lat="44.64534" lon="3.51432">
        <ele>1343</ele>
        <time>2009-07-06T13:30:57Z</time>
      </trkpt>
      <trkpt lat="44.64547" lon="3.51476">
        <ele>1347</ele>
        <time>2009-07-06T13:31:09Z</time>
      </trkpt>
      <trkpt lat="44.64552" lon="3.51488">
        <ele>1348</ele>
        <time>2009-07-06T13:31:13Z</time>
      </trkpt>
      <trkpt lat="44.64582" lon="3.51544">
        <ele>1350</ele>
        <time>2009-07-06T13:31:30Z</time>
      </trkpt>
      <trkpt lat="44.64594" lon="3.51565">
        <ele>1349</ele>
        <time>2009-07-06T13:31:35Z</time>
      </trkpt>
      <trkpt lat="44.64601" lon="3.51627">
        <ele>1348</ele>
        <time>2009-07-06T13:31:46Z</time>
      </trkpt>
      <trkpt lat="44.64604" lon="3.51717">
        <ele>1350</ele>
        <time>2009-07-06T13:32:03Z</time>
      </trkpt>
      <trkpt lat="44.64609" lon="3.51767">
        <ele>1353</ele>
        <time>2009-07-06T13:32:14Z</time>
      </trkpt>
      <trkpt lat="44.64613" lon="3.51796">
        <ele>1354</ele>
        <time>2009-07-06T13:32:21Z</time>
      </trkpt>
      <trkpt lat="44.64623" lon="3.51848">
        <ele>1357</ele>
        <time>2009-07-06T13:32:35Z</time>
      </trkpt>
      <trkpt lat="44.64629" lon="3.51871">
        <ele>1360</ele>
        <time>2009-07-06T13:32:42Z</time>
      </trkpt>
      <trkpt lat="44.64634" lon="3.519">
        <ele>1362</ele>
        <time>2009-07-06T13:32:51Z</time>
      </trkpt>
      <trkpt lat="44.64644" lon="3.51945">
        <ele>1365</ele>
        <time>2009-07-06T13:33:06Z</time>
      </trkpt>
      <trkpt lat="44.64656" lon="3.51975">
        <ele>1368</ele>
        <time>2009-07-06T13:33:17Z</time>
      </trkpt>
      <trkpt lat="44.64672" lon="3.52008">
        <ele>1371</ele>
        <time>2009-07-06T13:33:29Z</time>
      </trkpt>
      <trkpt lat="44.64661" lon="3.52045">
        <ele>1372</ele>
        <time>2009-07-06T13:33:40Z</time>
      </trkpt>
      <trkpt lat="44.64642" lon="3.5209">
        <ele>1372</ele>
        <time>2009-07-06T13:33:54Z</time>
      </trkpt>
      <trkpt lat="44.64614" lon="3.52131">
        <ele>1376</ele>
        <time>2009-07-06T13:34:11Z</time>
      </trkpt>
      <trkpt lat="44.64609" lon="3.52134">
        <ele>1376</ele>
        <time>2009-07-06T13:34:13Z</time>
      </trkpt>
      <trkpt lat="44.64573" lon="3.52156">
        <ele>1379</ele>
        <time>2009-07-06T13:34:30Z</time>
      </trkpt>
      <trkpt lat="44.64567" lon="3.52159">
        <ele>1380</ele>
        <time>2009-07-06T13:34:33Z</time>
      </trkpt>
      <trkpt lat="44.64554" lon="3.52168">
        <ele>1382</ele>
        <time>2009-07-06T13:34:40Z</time>
      </trkpt>
      <trkpt lat="44.64533" lon="3.52182">
        <ele>1385</ele>
        <time>2009-07-06T13:34:52Z</time>
      </trkpt>
      <trkpt lat="44.64532" lon="3.52184">
        <ele>1385</ele>
        <time>2009-07-06T13:34:53Z</time>
      </trkpt>
      <trkpt lat="44.64534" lon="3.52199">
        <ele>1385</ele>
        <time>2009-07-06T13:34:59Z</time>
      </trkpt>
      <trkpt lat="44.64549" lon="3.52206">
        <ele>1389</ele>
        <time>2009-07-06T13:35:07Z</time>
      </trkpt>
      <trkpt lat="44.6455" lon="3.52206">
        <ele>1389</ele>
        <time>2009-07-06T13:35:08Z</time>
      </trkpt>
      <trkpt lat="44.64574" lon="3.52217">
        <ele>1391</ele>
        <time>2009-07-06T13:35:22Z</time>
      </trkpt>
      <trkpt lat="44.64596" lon="3.52239">
        <ele>1395</ele>
        <time>2009-07-06T13:35:36Z</time>
      </trkpt>
      <trkpt lat="44.64622" lon="3.52264">
        <ele>1398</ele>
        <time>2009-07-06T13:35:53Z</time>
      </trkpt>
      <trkpt lat="44.64626" lon="3.52266">
        <ele>1399</ele>
        <time>2009-07-06T13:35:55Z</time>
      </trkpt>
      <trkpt lat="44.6464" lon="3.52275">
        <ele>1402</ele>
        <time>2009-07-06T13:36:03Z</time>
      </trkpt>
      <trkpt lat="44.64652" lon="3.52281">
        <ele>1405</ele>
        <time>2009-07-06T13:36:10Z</time>
      </trkpt>
      <trkpt lat="44.64653" lon="3.52285">
        <ele>1405</ele>
        <time>2009-07-06T13:36:12Z</time>
      </trkpt>
      <trkpt lat="44.64634" lon="3.52306">
        <ele>1405</ele>
        <time>2009-07-06T13:36:26Z</time>
      </trkpt>
      <trkpt lat="44.64623" lon="3.52306">
        <ele>1406</ele>
        <time>2009-07-06T13:36:31Z</time>
      </trkpt>
      <trkpt lat="44.64585" lon="3.523">
        <ele>1408</ele>
        <time>2009-07-06T13:36:46Z</time>
      </trkpt>
      <trkpt lat="44.64525" lon="3.52293">
        <ele>1409</ele>
        <time>2009-07-06T13:37:07Z</time>
      </trkpt>
      <trkpt lat="44.64478" lon="3.52298">
        <ele>1413</ele>
        <time>2009-07-06T13:37:23Z</time>
      </trkpt>
      <trkpt lat="44.64452" lon="3.52305">
        <ele>1415</ele>
        <time>2009-07-06T13:37:33Z</time>
      </trkpt>
      <trkpt lat="44.64432" lon="3.52311">
        <ele>1418</ele>
        <time>2009-07-06T13:37:42Z</time>
      </trkpt>
      <trkpt lat="44.64407" lon="3.52322">
        <ele>1420</ele>
        <time>2009-07-06T13:37:56Z</time>
      </trkpt>
      <trkpt lat="44.64396" lon="3.5233">
        <ele>1423</ele>
        <time>2009-07-06T13:38:03Z</time>
      </trkpt>
      <trkpt lat="44.64389" lon="3.52334">
        <ele>1424</ele>
        <time>2009-07-06T13:38:07Z</time>
      </trkpt>
      <trkpt lat="44.64372" lon="3.52339">
        <ele>1426</ele>
        <time>2009-07-06T13:38:16Z</time>
      </trkpt>
      <trkpt lat="44.64354" lon="3.52358">
        <ele>1430</ele>
        <time>2009-07-06T13:38:27Z</time>
      </trkpt>
      <trkpt lat="44.64325" lon="3.52391">
        <ele>1432</ele>
        <time>2009-07-06T13:38:43Z</time>
      </trkpt>
      <trkpt lat="44.64319" lon="3.52401">
        <ele>1434</ele>
        <time>2009-07-06T13:38:47Z</time>
      </trkpt>
      <trkpt lat="44.64294" lon="3.52438">
        <ele>1437</ele>
        <time>2009-07-06T13:39:05Z</time>
      </trkpt>
      <trkpt lat="44.64299" lon="3.52464">
        <ele>1440</ele>
        <time>2009-07-06T13:39:17Z</time>
      </trkpt>
      <trkpt lat="44.64319" lon="3.52457">
        <ele>1443</ele>
        <time>2009-07-06T13:39:26Z</time>
      </trkpt>
      <trkpt lat="44.64353" lon="3.5244">
        <ele>1444</ele>
        <time>2009-07-06T13:39:42Z</time>
      </trkpt>
      <trkpt lat="44.64369" lon="3.52448">
        <ele>1447</ele>
        <time>2009-07-06T13:39:53Z</time>
      </trkpt>
      <trkpt lat="44.64361" lon="3.52471">
        <ele>1450</ele>
        <time>2009-07-06T13:40:02Z</time>
      </trkpt>
      <trkpt lat="44.6436" lon="3.52474">
        <ele>1450</ele>
        <time>2009-07-06T13:40:03Z</time>
      </trkpt>
      <trkpt lat="44.64339" lon="3.52514">
        <ele>1452</ele>
        <time>2009-07-06T13:40:19Z</time>
      </trkpt>
      <trkpt lat="44.64327" lon="3.52545">
        <ele>1456</ele>
        <time>2009-07-06T13:40:33Z</time>
      </trkpt>
      <trkpt lat="44.64327" lon="3.5255">
        <ele>1457</ele>
        <time>2009-07-06T13:40:35Z</time>
      </trkpt>
      <trkpt lat="44.6433" lon="3.52561">
        <ele>1458</ele>
        <time>2009-07-06T13:40:41Z</time>
      </trkpt>
      <trkpt lat="44.64356" lon="3.52558">
        <ele>1461</ele>
        <time>2009-07-06T13:40:54Z</time>
      </trkpt>
      <trkpt lat="44.64383" lon="3.52552">
        <ele>1464</ele>
        <time>2009-07-06T13:41:10Z</time>
      </trkpt>
      <trkpt lat="44.64411" lon="3.52536">
        <ele>1467</ele>
        <time>2009-07-06T13:41:25Z</time>
      </trkpt>
      <trkpt lat="44.64442" lon="3.52515">
        <ele>1468</ele>
        <time>2009-07-06T13:41:40Z</time>
      </trkpt>
      <trkpt lat="44.64474" lon="3.52528">
        <ele>1472</ele>
        <time>2009-07-06T13:41:52Z</time>
      </trkpt>
      <trkpt lat="44.64495" lon="3.52562">
        <ele>1475</ele>
        <time>2009-07-06T13:42:07Z</time>
      </trkpt>
      <trkpt lat="44.64498" lon="3.52597">
        <ele>1478</ele>
        <time>2009-07-06T13:42:19Z</time>
      </trkpt>
      <trkpt lat="44.645" lon="3.52628">
        <ele>1479</ele>
        <time>2009-07-06T13:42:29Z</time>
      </trkpt>
      <trkpt lat="44.64484" lon="3.52667">
        <ele>1481</ele>
        <time>2009-07-06T13:42:44Z</time>
      </trkpt>
      <trkpt lat="44.64481" lon="3.52676">
        <ele>1482</ele>
        <time>2009-07-06T13:42:47Z</time>
      </trkpt>
      <trkpt lat="44.64462" lon="3.52725">
        <ele>1485</ele>
        <time>2009-07-06T13:43:03Z</time>
      </trkpt>
      <trkpt lat="44.64473" lon="3.52761">
        <ele>1488</ele>
        <time>2009-07-06T13:43:16Z</time>
      </trkpt>
      <trkpt lat="44.64488" lon="3.52771">
        <ele>1491</ele>
        <time>2009-07-06T13:43:23Z</time>
      </trkpt>
      <trkpt lat="44.64514" lon="3.52787">
        <ele>1493</ele>
        <time>2009-07-06T13:43:37Z</time>
      </trkpt>
      <trkpt lat="44.64517" lon="3.52791">
        <ele>1493</ele>
        <time>2009-07-06T13:43:39Z</time>
      </trkpt>
      <trkpt lat="44.64515" lon="3.52837">
        <ele>1495</ele>
        <time>2009-07-06T13:43:55Z</time>
      </trkpt>
      <trkpt lat="44.64508" lon="3.52876">
        <ele>1499</ele>
        <time>2009-07-06T13:44:11Z</time>
      </trkpt>
      <trkpt lat="44.64508" lon="3.52882">
        <ele>1499</ele>
        <time>2009-07-06T13:44:13Z</time>
      </trkpt>
      <trkpt lat="44.64514" lon="3.52912">
        <ele>1502</ele>
        <time>2009-07-06T13:44:25Z</time>
      </trkpt>
      <trkpt lat="44.64531" lon="3.5294">
        <ele>1504</ele>
        <time>2009-07-06T13:44:38Z</time>
      </trkpt>
      <trkpt lat="44.64546" lon="3.52958">
        <ele>1506</ele>
        <time>2009-07-06T13:44:47Z</time>
      </trkpt>
      <trkpt lat="44.64573" lon="3.52978">
        <ele>1507</ele>
        <time>2009-07-06T13:45:01Z</time>
      </trkpt>
      <trkpt lat="44.64595" lon="3.53001">
        <ele>1510</ele>
        <time>2009-07-06T13:45:13Z</time>
      </trkpt>
      <trkpt lat="44.64609" lon="3.5303">
        <ele>1513</ele>
        <time>2009-07-06T13:45:24Z</time>
      </trkpt>
      <trkpt lat="44.64624" lon="3.53073">
        <ele>1516</ele>
        <time>2009-07-06T13:45:39Z</time>
      </trkpt>
      <trkpt lat="44.64626" lon="3.53123">
        <ele>1518</ele>
        <time>2009-07-06T13:45:54Z</time>
      </trkpt>
      <trkpt lat="44.64612" lon="3.53155">
        <ele>1521</ele>
        <time>2009-07-06T13:46:06Z</time>
      </trkpt>
      <trkpt lat="44.64582" lon="3.53197">
        <ele>1523</ele>
        <time>2009-07-06T13:46:23Z</time>
      </trkpt>
      <trkpt lat="44.64552" lon="3.53242">
        <ele>1526</ele>
        <time>2009-07-06T13:46:39Z</time>
      </trkpt>
      <trkpt lat="44.64534" lon="3.53301">
        <ele>1526</ele>
        <time>2009-07-06T13:46:55Z</time>
      </trkpt>
      <trkpt lat="44.6453" lon="3.53326">
        <ele>1526</ele>
        <time>2009-07-06T13:47:03Z</time>
      </trkpt>
      <trkpt lat="44.64527" lon="3.5334">
        <ele>1526</ele>
        <time>2009-07-06T13:47:13Z</time>
      </trkpt>
      <trkpt lat="44.64528" lon="3.53338">
        <ele>1526</ele>
        <time>2009-07-06T13:47:31Z</time>
      </trkpt>
      <trkpt lat="44.6453" lon="3.53337">
        <ele>1525</ele>
        <time>2009-07-06T13:48:08Z</time>
      </trkpt>
      <trkpt lat="44.64531" lon="3.53336">
        <ele>1526</ele>
        <time>2009-07-06T13:49:28Z</time>
      </trkpt>
      <trkpt lat="44.64506" lon="3.53311">
        <ele>1528</ele>
        <time>2009-07-06T13:49:41Z</time>
      </trkpt>
      <trkpt lat="44.64459" lon="3.53264">
        <ele>1530</ele>
        <time>2009-07-06T13:50:01Z</time>
      </trkpt>
      <trkpt lat="44.64417" lon="3.5323">
        <ele>1533</ele>
        <time>2009-07-06T13:50:18Z</time>
      </trkpt>
      <trkpt lat="44.64373" lon="3.53222">
        <ele>1536</ele>
        <time>2009-07-06T13:50:34Z</time>
      </trkpt>
      <trkpt lat="44.64328" lon="3.53216">
        <ele>1537</ele>
        <time>2009-07-06T13:50:50Z</time>
      </trkpt>
      <trkpt lat="44.64322" lon="3.53214">
        <ele>1540</ele>
        <time>2009-07-06T13:50:59Z</time>
      </trkpt>
      <trkpt lat="44.64322" lon="3.53214">
        <ele>1540</ele>
        <time>2009-07-06T13:51:02Z</time>
      </trkpt>
      <trkpt lat="44.64322" lon="3.53214">
        <ele>1537</ele>
        <time>2009-07-06T13:51:06Z</time>
      </trkpt>
      <trkpt lat="44.64322" lon="3.53214">
        <ele>1537</ele>
        <time>2009-07-06T13:51:35Z</time>
      </trkpt>
      <trkpt lat="44.64309" lon="3.53213">
        <ele>1538</ele>
        <time>2009-07-06T13:52:36Z</time>
      </trkpt>
      <trkpt lat="44.64299" lon="3.53209">
        <ele>1539</ele>
        <time>2009-07-06T13:52:42Z</time>
      </trkpt>
      <trkpt lat="44.64295" lon="3.53218">
        <ele>1539</ele>
        <time>2009-07-06T13:52:47Z</time>
      </trkpt>
      <trkpt lat="44.6428" lon="3.53244">
        <ele>1543</ele>
        <time>2009-07-06T13:53:00Z</time>
      </trkpt>
      <trkpt lat="44.64265" lon="3.5326">
        <ele>1545</ele>
        <time>2009-07-06T13:53:10Z</time>
      </trkpt>
      <trkpt lat="44.64258" lon="3.53265">
        <ele>1546</ele>
        <time>2009-07-06T13:53:15Z</time>
      </trkpt>
      <trkpt lat="44.64254" lon="3.53271">
        <ele>1546</ele>
        <time>2009-07-06T13:53:27Z</time>
      </trkpt>
      <trkpt lat="44.64255" lon="3.53273">
        <ele>1549</ele>
        <time>2009-07-06T14:00:48Z</time>
      </trkpt>
      <trkpt lat="44.64258" lon="3.53268">
        <ele>1550</ele>
        <time>2009-07-06T14:03:46Z</time>
      </trkpt>
      <trkpt lat="44.64259" lon="3.53265">
        <ele>1549</ele>
        <time>2009-07-06T14:04:41Z</time>
      </trkpt>
      <trkpt lat="44.6426" lon="3.53265">
        <ele>1549</ele>
        <time>2009-07-06T14:05:16Z</time>
      </trkpt>
      <trkpt lat="44.64261" lon="3.53266">
        <ele>1550</ele>
        <time>2009-07-06T14:06:03Z</time>
      </trkpt>
      <trkpt lat="44.64261" lon="3.53265">
        <ele>1550</ele>
        <time>2009-07-06T14:06:07Z</time>
      </trkpt>
      <trkpt lat="44.64268" lon="3.5326">
        <ele>1549</ele>
        <time>2009-07-06T14:06:20Z</time>
      </trkpt>
      <trkpt lat="44.64278" lon="3.53249">
        <ele>1546</ele>
        <time>2009-07-06T14:06:25Z</time>
      </trkpt>
      <trkpt lat="44.64289" lon="3.53231">
        <ele>1543</ele>
        <time>2009-07-06T14:06:30Z</time>
      </trkpt>
      <trkpt lat="44.64292" lon="3.53227">
        <ele>1543</ele>
        <time>2009-07-06T14:06:31Z</time>
      </trkpt>
      <trkpt lat="44.64301" lon="3.53214">
        <ele>1542</ele>
        <time>2009-07-06T14:06:35Z</time>
      </trkpt>
      <trkpt lat="44.64352" lon="3.5322">
        <ele>1542</ele>
        <time>2009-07-06T14:06:50Z</time>
      </trkpt>
      <trkpt lat="44.64407" lon="3.53228">
        <ele>1539</ele>
        <time>2009-07-06T14:07:01Z</time>
      </trkpt>
      <trkpt lat="44.64424" lon="3.53234">
        <ele>1536</ele>
        <time>2009-07-06T14:07:04Z</time>
      </trkpt>
      <trkpt lat="44.64485" lon="3.5329">
        <ele>1533</ele>
        <time>2009-07-06T14:07:14Z</time>
      </trkpt>
      <trkpt lat="44.64492" lon="3.53296">
        <ele>1533</ele>
        <time>2009-07-06T14:07:15Z</time>
      </trkpt>
      <trkpt lat="44.64528" lon="3.53331">
        <ele>1534</ele>
        <time>2009-07-06T14:07:23Z</time>
      </trkpt>
      <trkpt lat="44.64529" lon="3.53332">
        <ele>1534</ele>
        <time>2009-07-06T14:07:34Z</time>
      </trkpt>
      <trkpt lat="44.6453" lon="3.53327">
        <ele>1534</ele>
        <time>2009-07-06T14:08:12Z</time>
      </trkpt>
      <trkpt lat="44.64528" lon="3.53328">
        <ele>1534</ele>
        <time>2009-07-06T14:11:45Z</time>
      </trkpt>
      <trkpt lat="44.64529" lon="3.53331">
        <ele>1534</ele>
        <time>2009-07-06T14:12:06Z</time>
      </trkpt>
      <trkpt lat="44.6453" lon="3.5333">
        <ele>1534</ele>
        <time>2009-07-06T14:12:39Z</time>
      </trkpt>
      <trkpt lat="44.6453" lon="3.53336">
        <ele>1534</ele>
        <time>2009-07-06T14:13:18Z</time>
      </trkpt>
      <trkpt lat="44.64535" lon="3.53343">
        <ele>1534</ele>
        <time>2009-07-06T14:13:24Z</time>
      </trkpt>
      <trkpt lat="44.64547" lon="3.53354">
        <ele>1534</ele>
        <time>2009-07-06T14:13:31Z</time>
      </trkpt>
      <trkpt lat="44.646" lon="3.53402">
        <ele>1534</ele>
        <time>2009-07-06T14:13:49Z</time>
      </trkpt>
      <trkpt lat="44.64648" lon="3.53427">
        <ele>1534</ele>
        <time>2009-07-06T14:14:03Z</time>
      </trkpt>
      <trkpt lat="44.64726" lon="3.53464">
        <ele>1532</ele>
        <time>2009-07-06T14:14:23Z</time>
      </trkpt>
      <trkpt lat="44.64738" lon="3.5347">
        <ele>1530</ele>
        <time>2009-07-06T14:14:25Z</time>
      </trkpt>
      <trkpt lat="44.64766" lon="3.53482">
        <ele>1527</ele>
        <time>2009-07-06T14:14:29Z</time>
      </trkpt>
      <trkpt lat="44.64782" lon="3.5349">
        <ele>1526</ele>
        <time>2009-07-06T14:14:31Z</time>
      </trkpt>
      <trkpt lat="44.648" lon="3.53499">
        <ele>1522</ele>
        <time>2009-07-06T14:14:33Z</time>
      </trkpt>
      <trkpt lat="44.64832" lon="3.53514">
        <ele>1514</ele>
        <time>2009-07-06T14:14:36Z</time>
      </trkpt>
      <trkpt lat="44.64862" lon="3.53529">
        <ele>1514</ele>
        <time>2009-07-06T14:14:39Z</time>
      </trkpt>
      <trkpt lat="44.64915" lon="3.53593">
        <ele>1513</ele>
        <time>2009-07-06T14:14:46Z</time>
      </trkpt>
      <trkpt lat="44.64939" lon="3.53615">
        <ele>1514</ele>
        <time>2009-07-06T14:14:49Z</time>
      </trkpt>
      <trkpt lat="44.64955" lon="3.53655">
        <ele>1514</ele>
        <time>2009-07-06T14:14:55Z</time>
      </trkpt>
      <trkpt lat="44.64959" lon="3.53665">
        <ele>1514</ele>
        <time>2009-07-06T14:14:57Z</time>
      </trkpt>
      <trkpt lat="44.64968" lon="3.537">
        <ele>1514</ele>
        <time>2009-07-06T14:15:03Z</time>
      </trkpt>
      <trkpt lat="44.64983" lon="3.53741">
        <ele>1513</ele>
        <time>2009-07-06T14:15:10Z</time>
      </trkpt>
      <trkpt lat="44.65003" lon="3.53772">
        <ele>1509</ele>
        <time>2009-07-06T14:15:15Z</time>
      </trkpt>
      <trkpt lat="44.65013" lon="3.53796">
        <ele>1508</ele>
        <time>2009-07-06T14:15:18Z</time>
      </trkpt>
      <trkpt lat="44.65014" lon="3.53841">
        <ele>1504</ele>
        <time>2009-07-06T14:15:23Z</time>
      </trkpt>
      <trkpt lat="44.65007" lon="3.53845">
        <ele>1504</ele>
        <time>2009-07-06T14:15:24Z</time>
      </trkpt>
      <trkpt lat="44.64997" lon="3.5386">
        <ele>1503</ele>
        <time>2009-07-06T14:15:26Z</time>
      </trkpt>
      <trkpt lat="44.64975" lon="3.53889">
        <ele>1501</ele>
        <time>2009-07-06T14:15:30Z</time>
      </trkpt>
      <trkpt lat="44.6493" lon="3.53944">
        <ele>1497</ele>
        <time>2009-07-06T14:15:37Z</time>
      </trkpt>
      <trkpt lat="44.64894" lon="3.53988">
        <ele>1496</ele>
        <time>2009-07-06T14:15:44Z</time>
      </trkpt>
      <trkpt lat="44.64873" lon="3.54009">
        <ele>1497</ele>
        <time>2009-07-06T14:15:48Z</time>
      </trkpt>
      <trkpt lat="44.64803" lon="3.54048">
        <ele>1500</ele>
        <time>2009-07-06T14:16:04Z</time>
      </trkpt>
      <trkpt lat="44.64798" lon="3.54052">
        <ele>1499</ele>
        <time>2009-07-06T14:16:05Z</time>
      </trkpt>
      <trkpt lat="44.64789" lon="3.54056">
        <ele>1500</ele>
        <time>2009-07-06T14:16:07Z</time>
      </trkpt>
      <trkpt lat="44.64751" lon="3.54053">
        <ele>1502</ele>
        <time>2009-07-06T14:16:16Z</time>
      </trkpt>
      <trkpt lat="44.64718" lon="3.54041">
        <ele>1500</ele>
        <time>2009-07-06T14:16:23Z</time>
      </trkpt>
      <trkpt lat="44.64712" lon="3.54039">
        <ele>1499</ele>
        <time>2009-07-06T14:16:24Z</time>
      </trkpt>
      <trkpt lat="44.64641" lon="3.54017">
        <ele>1496</ele>
        <time>2009-07-06T14:16:36Z</time>
      </trkpt>
      <trkpt lat="44.64594" lon="3.53994">
        <ele>1495</ele>
        <time>2009-07-06T14:16:45Z</time>
      </trkpt>
      <trkpt lat="44.64579" lon="3.53986">
        <ele>1495</ele>
        <time>2009-07-06T14:16:48Z</time>
      </trkpt>
      <trkpt lat="44.64499" lon="3.53946">
        <ele>1494</ele>
        <time>2009-07-06T14:17:02Z</time>
      </trkpt>
      <trkpt lat="44.64487" lon="3.53939">
        <ele>1493</ele>
        <time>2009-07-06T14:17:04Z</time>
      </trkpt>
      <trkpt lat="44.64465" lon="3.5392">
        <ele>1492</ele>
        <time>2009-07-06T14:17:08Z</time>
      </trkpt>
      <trkpt lat="44.64444" lon="3.53891">
        <ele>1492</ele>
        <time>2009-07-06T14:17:13Z</time>
      </trkpt>
      <trkpt lat="44.64416" lon="3.5386">
        <ele>1490</ele>
        <time>2009-07-06T14:17:19Z</time>
      </trkpt>
      <trkpt lat="44.64393" lon="3.53851">
        <ele>1489</ele>
        <time>2009-07-06T14:17:23Z</time>
      </trkpt>
      <trkpt lat="44.64379" lon="3.53855">
        <ele>1486</ele>
        <time>2009-07-06T14:17:26Z</time>
      </trkpt>
      <trkpt lat="44.64375" lon="3.53871">
        <ele>1485</ele>
        <time>2009-07-06T14:17:28Z</time>
      </trkpt>
      <trkpt lat="44.64369" lon="3.53916">
        <ele>1482</ele>
        <time>2009-07-06T14:17:32Z</time>
      </trkpt>
      <trkpt lat="44.64363" lon="3.53935">
        <ele>1481</ele>
        <time>2009-07-06T14:17:34Z</time>
      </trkpt>
      <trkpt lat="44.64362" lon="3.53956">
        <ele>1480</ele>
        <time>2009-07-06T14:17:36Z</time>
      </trkpt>
      <trkpt lat="44.64362" lon="3.53977">
        <ele>1479</ele>
        <time>2009-07-06T14:17:38Z</time>
      </trkpt>
      <trkpt lat="44.64368" lon="3.54043">
        <ele>1476</ele>
        <time>2009-07-06T14:17:44Z</time>
      </trkpt>
      <trkpt lat="44.64364" lon="3.54068">
        <ele>1473</ele>
        <time>2009-07-06T14:17:47Z</time>
      </trkpt>
      <trkpt lat="44.6436" lon="3.54083">
        <ele>1471</ele>
        <time>2009-07-06T14:17:49Z</time>
      </trkpt>
      <trkpt lat="44.64336" lon="3.54101">
        <ele>1468</ele>
        <time>2009-07-06T14:17:53Z</time>
      </trkpt>
      <trkpt lat="44.6432" lon="3.54105">
        <ele>1466</ele>
        <time>2009-07-06T14:17:55Z</time>
      </trkpt>
      <trkpt lat="44.64312" lon="3.54108">
        <ele>1466</ele>
        <time>2009-07-06T14:17:56Z</time>
      </trkpt>
      <trkpt lat="44.64296" lon="3.54112">
        <ele>1465</ele>
        <time>2009-07-06T14:17:58Z</time>
      </trkpt>
      <trkpt lat="44.64249" lon="3.54112">
        <ele>1464</ele>
        <time>2009-07-06T14:18:04Z</time>
      </trkpt>
      <trkpt lat="44.64226" lon="3.5412">
        <ele>1462</ele>
        <time>2009-07-06T14:18:07Z</time>
      </trkpt>
      <trkpt lat="44.6418" lon="3.54154">
        <ele>1458</ele>
        <time>2009-07-06T14:18:14Z</time>
      </trkpt>
      <trkpt lat="44.64173" lon="3.54159">
        <ele>1457</ele>
        <time>2009-07-06T14:18:15Z</time>
      </trkpt>
      <trkpt lat="44.64148" lon="3.54167">
        <ele>1456</ele>
        <time>2009-07-06T14:18:18Z</time>
      </trkpt>
      <trkpt lat="44.6414" lon="3.54166">
        <ele>1456</ele>
        <time>2009-07-06T14:18:19Z</time>
      </trkpt>
      <trkpt lat="44.64109" lon="3.54155">
        <ele>1453</ele>
        <time>2009-07-06T14:18:23Z</time>
      </trkpt>
      <trkpt lat="44.6408" lon="3.54164">
        <ele>1451</ele>
        <time>2009-07-06T14:18:27Z</time>
      </trkpt>
      <trkpt lat="44.64033" lon="3.5423">
        <ele>1446</ele>
        <time>2009-07-06T14:18:34Z</time>
      </trkpt>
      <trkpt lat="44.64013" lon="3.54254">
        <ele>1447</ele>
        <time>2009-07-06T14:18:37Z</time>
      </trkpt>
      <trkpt lat="44.63997" lon="3.54277">
        <ele>1447</ele>
        <time>2009-07-06T14:18:45Z</time>
      </trkpt>
      <trkpt lat="44.63992" lon="3.54281">
        <ele>1448</ele>
        <time>2009-07-06T14:18:47Z</time>
      </trkpt>
      <trkpt lat="44.63979" lon="3.54298">
        <ele>1447</ele>
        <time>2009-07-06T14:18:53Z</time>
      </trkpt>
      <trkpt lat="44.63966" lon="3.54345">
        <ele>1446</ele>
        <time>2009-07-06T14:19:00Z</time>
      </trkpt>
      <trkpt lat="44.63955" lon="3.54382">
        <ele>1446</ele>
        <time>2009-07-06T14:19:05Z</time>
      </trkpt>
      <trkpt lat="44.63948" lon="3.54405">
        <ele>1445</ele>
        <time>2009-07-06T14:19:08Z</time>
      </trkpt>
      <trkpt lat="44.63935" lon="3.54452">
        <ele>1443</ele>
        <time>2009-07-06T14:19:14Z</time>
      </trkpt>
      <trkpt lat="44.63924" lon="3.54508">
        <ele>1441</ele>
        <time>2009-07-06T14:19:20Z</time>
      </trkpt>
      <trkpt lat="44.63908" lon="3.54574">
        <ele>1440</ele>
        <time>2009-07-06T14:19:27Z</time>
      </trkpt>
      <trkpt lat="44.63897" lon="3.54669">
        <ele>1440</ele>
        <time>2009-07-06T14:19:37Z</time>
      </trkpt>
      <trkpt lat="44.63887" lon="3.54707">
        <ele>1439</ele>
        <time>2009-07-06T14:19:41Z</time>
      </trkpt>
      <trkpt lat="44.6386" lon="3.54791">
        <ele>1441</ele>
        <time>2009-07-06T14:19:51Z</time>
      </trkpt>
      <trkpt lat="44.63854" lon="3.54841">
        <ele>1442</ele>
        <time>2009-07-06T14:19:58Z</time>
      </trkpt>
      <trkpt lat="44.6386" lon="3.54914">
        <ele>1444</ele>
        <time>2009-07-06T14:20:11Z</time>
      </trkpt>
      <trkpt lat="44.63866" lon="3.54953">
        <ele>1445</ele>
        <time>2009-07-06T14:20:18Z</time>
      </trkpt>
      <trkpt lat="44.63873" lon="3.54986">
        <ele>1444</ele>
        <time>2009-07-06T14:20:24Z</time>
      </trkpt>
      <trkpt lat="44.63875" lon="3.55006">
        <ele>1445</ele>
        <time>2009-07-06T14:20:27Z</time>
      </trkpt>
      <trkpt lat="44.63856" lon="3.55055">
        <ele>1441</ele>
        <time>2009-07-06T14:20:35Z</time>
      </trkpt>
      <trkpt lat="44.63849" lon="3.55109">
        <ele>1437</ele>
        <time>2009-07-06T14:20:42Z</time>
      </trkpt>
      <trkpt lat="44.63854" lon="3.55115">
        <ele>1437</ele>
        <time>2009-07-06T14:20:43Z</time>
      </trkpt>
      <trkpt lat="44.63875" lon="3.5516">
        <ele>1431</ele>
        <time>2009-07-06T14:20:48Z</time>
      </trkpt>
      <trkpt lat="44.63884" lon="3.55182">
        <ele>1431</ele>
        <time>2009-07-06T14:20:50Z</time>
      </trkpt>
      <trkpt lat="44.63918" lon="3.55238">
        <ele>1428</ele>
        <time>2009-07-06T14:20:56Z</time>
      </trkpt>
      <trkpt lat="44.63929" lon="3.55282">
        <ele>1424</ele>
        <time>2009-07-06T14:21:00Z</time>
      </trkpt>
      <trkpt lat="44.63911" lon="3.55315">
        <ele>1422</ele>
        <time>2009-07-06T14:21:04Z</time>
      </trkpt>
      <trkpt lat="44.63895" lon="3.55329">
        <ele>1419</ele>
        <time>2009-07-06T14:21:07Z</time>
      </trkpt>
      <trkpt lat="44.63886" lon="3.55343">
        <ele>1419</ele>
        <time>2009-07-06T14:21:09Z</time>
      </trkpt>
      <trkpt lat="44.63876" lon="3.55367">
        <ele>1418</ele>
        <time>2009-07-06T14:21:12Z</time>
      </trkpt>
      <trkpt lat="44.63868" lon="3.55416">
        <ele>1413</ele>
        <time>2009-07-06T14:21:16Z</time>
      </trkpt>
      <trkpt lat="44.63855" lon="3.55473">
        <ele>1411</ele>
        <time>2009-07-06T14:21:21Z</time>
      </trkpt>
      <trkpt lat="44.6386" lon="3.55526">
        <ele>1407</ele>
        <time>2009-07-06T14:21:26Z</time>
      </trkpt>
      <trkpt lat="44.6386" lon="3.55538">
        <ele>1407</ele>
        <time>2009-07-06T14:21:27Z</time>
      </trkpt>
      <trkpt lat="44.63862" lon="3.55561">
        <ele>1407</ele>
        <time>2009-07-06T14:21:29Z</time>
      </trkpt>
      <trkpt lat="44.63871" lon="3.55602">
        <ele>1405</ele>
        <time>2009-07-06T14:21:33Z</time>
      </trkpt>
      <trkpt lat="44.63887" lon="3.55641">
        <ele>1401</ele>
        <time>2009-07-06T14:21:37Z</time>
      </trkpt>
      <trkpt lat="44.63894" lon="3.55659">
        <ele>1400</ele>
        <time>2009-07-06T14:21:39Z</time>
      </trkpt>
      <trkpt lat="44.63907" lon="3.55707">
        <ele>1398</ele>
        <time>2009-07-06T14:21:44Z</time>
      </trkpt>
      <trkpt lat="44.63903" lon="3.55761">
        <ele>1396</ele>
        <time>2009-07-06T14:21:50Z</time>
      </trkpt>
      <trkpt lat="44.63897" lon="3.55783">
        <ele>1394</ele>
        <time>2009-07-06T14:21:53Z</time>
      </trkpt>
      <trkpt lat="44.63884" lon="3.55817">
        <ele>1392</ele>
        <time>2009-07-06T14:21:57Z</time>
      </trkpt>
      <trkpt lat="44.63871" lon="3.55853">
        <ele>1390</ele>
        <time>2009-07-06T14:22:01Z</time>
      </trkpt>
      <trkpt lat="44.63867" lon="3.55862">
        <ele>1389</ele>
        <time>2009-07-06T14:22:02Z</time>
      </trkpt>
      <trkpt lat="44.63859" lon="3.55877">
        <ele>1389</ele>
        <time>2009-07-06T14:22:04Z</time>
      </trkpt>
      <trkpt lat="44.63831" lon="3.5591">
        <ele>1385</ele>
        <time>2009-07-06T14:22:09Z</time>
      </trkpt>
      <trkpt lat="44.63817" lon="3.55919">
        <ele>1386</ele>
        <time>2009-07-06T14:22:11Z</time>
      </trkpt>
      <trkpt lat="44.63799" lon="3.55941">
        <ele>1382</ele>
        <time>2009-07-06T14:22:14Z</time>
      </trkpt>
      <trkpt lat="44.63787" lon="3.55951">
        <ele>1382</ele>
        <time>2009-07-06T14:22:16Z</time>
      </trkpt>
      <trkpt lat="44.63768" lon="3.5597">
        <ele>1381</ele>
        <time>2009-07-06T14:22:19Z</time>
      </trkpt>
      <trkpt lat="44.63729" lon="3.56004">
        <ele>1379</ele>
        <time>2009-07-06T14:22:26Z</time>
      </trkpt>
      <trkpt lat="44.63703" lon="3.56017">
        <ele>1378</ele>
        <time>2009-07-06T14:22:31Z</time>
      </trkpt>
      <trkpt lat="44.63686" lon="3.56025">
        <ele>1376</ele>
        <time>2009-07-06T14:22:34Z</time>
      </trkpt>
      <trkpt lat="44.63674" lon="3.5603">
        <ele>1375</ele>
        <time>2009-07-06T14:22:36Z</time>
      </trkpt>
      <trkpt lat="44.63669" lon="3.56033">
        <ele>1374</ele>
        <time>2009-07-06T14:22:37Z</time>
      </trkpt>
      <trkpt lat="44.63659" lon="3.56037">
        <ele>1373</ele>
        <time>2009-07-06T14:22:39Z</time>
      </trkpt>
      <trkpt lat="44.63638" lon="3.56052">
        <ele>1373</ele>
        <time>2009-07-06T14:22:47Z</time>
      </trkpt>
      <trkpt lat="44.63639" lon="3.56055">
        <ele>1373</ele>
        <time>2009-07-06T14:23:03Z</time>
      </trkpt>
      <trkpt lat="44.63646" lon="3.56053">
        <ele>1374</ele>
        <time>2009-07-06T14:23:20Z</time>
      </trkpt>
      <trkpt lat="44.63649" lon="3.56052">
        <ele>1374</ele>
        <time>2009-07-06T14:23:54Z</time>
      </trkpt>
      <trkpt lat="44.63647" lon="3.56054">
        <ele>1374</ele>
        <time>2009-07-06T14:24:25Z</time>
      </trkpt>
      <trkpt lat="44.63647" lon="3.56057">
        <ele>1374</ele>
        <time>2009-07-06T14:24:45Z</time>
      </trkpt>
      <trkpt lat="44.63648" lon="3.56058">
        <ele>1373</ele>
        <time>2009-07-06T14:24:50Z</time>
      </trkpt>
      <trkpt lat="44.63649" lon="3.5606">
        <ele>1372</ele>
        <time>2009-07-06T14:25:27Z</time>
      </trkpt>
      <trkpt lat="44.63653" lon="3.56057">
        <ele>1373</ele>
        <time>2009-07-06T14:26:05Z</time>
      </trkpt>
      <trkpt lat="44.63655" lon="3.56055">
        <ele>1372</ele>
        <time>2009-07-06T14:26:28Z</time>
      </trkpt>
      <trkpt lat="44.63652" lon="3.56058">
        <ele>1374</ele>
        <time>2009-07-06T14:27:09Z</time>
      </trkpt>
      <trkpt lat="44.63653" lon="3.56057">
        <ele>1375</ele>
        <time>2009-07-06T14:27:40Z</time>
      </trkpt>
      <trkpt lat="44.63653" lon="3.56057">
        <ele>1374</ele>
        <time>2009-07-06T14:29:09Z</time>
      </trkpt>
      <trkpt lat="44.63653" lon="3.56052">
        <ele>1376</ele>
        <time>2009-07-06T14:29:50Z</time>
      </trkpt>
      <trkpt lat="44.63653" lon="3.56048">
        <ele>1376</ele>
        <time>2009-07-06T14:29:59Z</time>
      </trkpt>
      <trkpt lat="44.63654" lon="3.56048">
        <ele>1375</ele>
        <time>2009-07-06T14:30:07Z</time>
      </trkpt>
      <trkpt lat="44.63654" lon="3.5605">
        <ele>1375</ele>
        <time>2009-07-06T14:30:43Z</time>
      </trkpt>
      <trkpt lat="44.63652" lon="3.56054">
        <ele>1375</ele>
        <time>2009-07-06T14:30:59Z</time>
      </trkpt>
      <trkpt lat="44.6365" lon="3.56052">
        <ele>1376</ele>
        <time>2009-07-06T14:31:21Z</time>
      </trkpt>
      <trkpt lat="44.63648" lon="3.56052">
        <ele>1375</ele>
        <time>2009-07-06T14:31:57Z</time>
      </trkpt>
      <trkpt lat="44.63647" lon="3.56047">
        <ele>1374</ele>
        <time>2009-07-06T14:32:13Z</time>
      </trkpt>
      <trkpt lat="44.63645" lon="3.56046">
        <ele>1373</ele>
        <time>2009-07-06T14:32:55Z</time>
      </trkpt>
      <trkpt lat="44.63636" lon="3.56053">
        <ele>1373</ele>
        <time>2009-07-06T14:33:27Z</time>
      </trkpt>
      <trkpt lat="44.6364" lon="3.56042">
        <ele>1373</ele>
        <time>2009-07-06T14:34:02Z</time>
      </trkpt>
      <trkpt lat="44.63644" lon="3.56045">
        <ele>1373</ele>
        <time>2009-07-06T14:34:32Z</time>
      </trkpt>
      <trkpt lat="44.63644" lon="3.56043">
        <ele>1375</ele>
        <time>2009-07-06T14:35:12Z</time>
      </trkpt>
      <trkpt lat="44.63647" lon="3.56043">
        <ele>1374</ele>
        <time>2009-07-06T14:35:29Z</time>
      </trkpt>
      <trkpt lat="44.63648" lon="3.56044">
        <ele>1374</ele>
        <time>2009-07-06T14:35:53Z</time>
      </trkpt>
      <trkpt lat="44.63646" lon="3.56044">
        <ele>1375</ele>
        <time>2009-07-06T14:36:29Z</time>
      </trkpt>
      <trkpt lat="44.63649" lon="3.56046">
        <ele>1375</ele>
        <time>2009-07-06T14:37:05Z</time>
      </trkpt>
      <trkpt lat="44.6365" lon="3.56047">
        <ele>1375</ele>
        <time>2009-07-06T14:37:33Z</time>
      </trkpt>
      <trkpt lat="44.6365" lon="3.56047">
        <ele>1375</ele>
        <time>2009-07-06T14:37:45Z</time>
      </trkpt>
      <trkpt lat="44.63651" lon="3.56052">
        <ele>1374</ele>
        <time>2009-07-06T14:37:48Z</time>
      </trkpt>
      <trkpt lat="44.63656" lon="3.56075">
        <ele>1375</ele>
        <time>2009-07-06T14:37:59Z</time>
      </trkpt>
      <trkpt lat="44.6368" lon="3.56126">
        <ele>1375</ele>
        <time>2009-07-06T14:38:13Z</time>
      </trkpt>
      <trkpt lat="44.63712" lon="3.56195">
        <ele>1374</ele>
        <time>2009-07-06T14:38:28Z</time>
      </trkpt>
      <trkpt lat="44.63717" lon="3.56203">
        <ele>1373</ele>
        <time>2009-07-06T14:38:30Z</time>
      </trkpt>
      <trkpt lat="44.63729" lon="3.56233">
        <ele>1372</ele>
        <time>2009-07-06T14:38:36Z</time>
      </trkpt>
      <trkpt lat="44.63751" lon="3.56277">
        <ele>1368</ele>
        <time>2009-07-06T14:38:45Z</time>
      </trkpt>
      <trkpt lat="44.63775" lon="3.56317">
        <ele>1365</ele>
        <time>2009-07-06T14:38:52Z</time>
      </trkpt>
      <trkpt lat="44.63802" lon="3.5637">
        <ele>1363</ele>
        <time>2009-07-06T14:39:03Z</time>
      </trkpt>
      <trkpt lat="44.63807" lon="3.56382">
        <ele>1361</ele>
        <time>2009-07-06T14:39:06Z</time>
      </trkpt>
      <trkpt lat="44.63816" lon="3.5641">
        <ele>1358</ele>
        <time>2009-07-06T14:39:14Z</time>
      </trkpt>
      <trkpt lat="44.63832" lon="3.56444">
        <ele>1358</ele>
        <time>2009-07-06T14:39:25Z</time>
      </trkpt>
      <trkpt lat="44.63848" lon="3.5646">
        <ele>1357</ele>
        <time>2009-07-06T14:39:41Z</time>
      </trkpt>
      <trkpt lat="44.63852" lon="3.56464">
        <ele>1357</ele>
        <time>2009-07-06T14:39:54Z</time>
      </trkpt>
      <trkpt lat="44.63859" lon="3.56469">
        <ele>1357</ele>
        <time>2009-07-06T14:40:08Z</time>
      </trkpt>
      <trkpt lat="44.63859" lon="3.56469">
        <ele>1356</ele>
        <time>2009-07-06T14:40:12Z</time>
      </trkpt>
      <trkpt lat="44.63861" lon="3.5647">
        <ele>1357</ele>
        <time>2009-07-06T14:40:29Z</time>
      </trkpt>
      <trkpt lat="44.63862" lon="3.56469">
        <ele>1356</ele>
        <time>2009-07-06T14:40:42Z</time>
      </trkpt>
      <trkpt lat="44.63867" lon="3.5647">
        <ele>1356</ele>
        <time>2009-07-06T14:40:57Z</time>
      </trkpt>
      <trkpt lat="44.63868" lon="3.56475">
        <ele>1357</ele>
        <time>2009-07-06T14:41:10Z</time>
      </trkpt>
      <trkpt lat="44.63874" lon="3.56478">
        <ele>1357</ele>
        <time>2009-07-06T14:41:26Z</time>
      </trkpt>
      <trkpt lat="44.6388" lon="3.56485">
        <ele>1359</ele>
        <time>2009-07-06T14:41:37Z</time>
      </trkpt>
      <trkpt lat="44.63891" lon="3.56492">
        <ele>1358</ele>
        <time>2009-07-06T14:41:50Z</time>
      </trkpt>
      <trkpt lat="44.63894" lon="3.56496">
        <ele>1359</ele>
        <time>2009-07-06T14:41:57Z</time>
      </trkpt>
      <trkpt lat="44.63895" lon="3.56503">
        <ele>1359</ele>
        <time>2009-07-06T14:42:02Z</time>
      </trkpt>
      <trkpt lat="44.63902" lon="3.56504">
        <ele>1359</ele>
        <time>2009-07-06T14:42:14Z</time>
      </trkpt>
      <trkpt lat="44.63905" lon="3.56501">
        <ele>1359</ele>
        <time>2009-07-06T14:42:38Z</time>
      </trkpt>
      <trkpt lat="44.63907" lon="3.56499">
        <ele>1358</ele>
        <time>2009-07-06T14:43:19Z</time>
      </trkpt>
      <trkpt lat="44.63911" lon="3.56492">
        <ele>1358</ele>
        <time>2009-07-06T14:43:23Z</time>
      </trkpt>
      <trkpt lat="44.63947" lon="3.56425">
        <ele>1360</ele>
        <time>2009-07-06T14:43:44Z</time>
      </trkpt>
      <trkpt lat="44.63977" lon="3.56384">
        <ele>1363</ele>
        <time>2009-07-06T14:43:58Z</time>
      </trkpt>
      <trkpt lat="44.63981" lon="3.56379">
        <ele>1364</ele>
        <time>2009-07-06T14:44:00Z</time>
      </trkpt>
      <trkpt lat="44.6402" lon="3.56345">
        <ele>1368</ele>
        <time>2009-07-06T14:44:17Z</time>
      </trkpt>
      <trkpt lat="44.64055" lon="3.56325">
        <ele>1371</ele>
        <time>2009-07-06T14:44:33Z</time>
      </trkpt>
      <trkpt lat="44.64089" lon="3.56313">
        <ele>1374</ele>
        <time>2009-07-06T14:44:48Z</time>
      </trkpt>
      <trkpt lat="44.64091" lon="3.56313">
        <ele>1374</ele>
        <time>2009-07-06T14:44:49Z</time>
      </trkpt>
      <trkpt lat="44.64134" lon="3.56297">
        <ele>1377</ele>
        <time>2009-07-06T14:45:06Z</time>
      </trkpt>
      <trkpt lat="44.64186" lon="3.56287">
        <ele>1379</ele>
        <time>2009-07-06T14:45:25Z</time>
      </trkpt>
      <trkpt lat="44.64252" lon="3.56284">
        <ele>1381</ele>
        <time>2009-07-06T14:45:48Z</time>
      </trkpt>
      <trkpt lat="44.64313" lon="3.56281">
        <ele>1384</ele>
        <time>2009-07-06T14:46:09Z</time>
      </trkpt>
      <trkpt lat="44.64385" lon="3.56279">
        <ele>1387</ele>
        <time>2009-07-06T14:46:33Z</time>
      </trkpt>
      <trkpt lat="44.64436" lon="3.56277">
        <ele>1390</ele>
        <time>2009-07-06T14:46:50Z</time>
      </trkpt>
      <trkpt lat="44.64456" lon="3.56277">
        <ele>1392</ele>
        <time>2009-07-06T14:46:57Z</time>
      </trkpt>
      <trkpt lat="44.64482" lon="3.56276">
        <ele>1392</ele>
        <time>2009-07-06T14:47:06Z</time>
      </trkpt>
      <trkpt lat="44.64536" lon="3.56277">
        <ele>1395</ele>
        <time>2009-07-06T14:47:25Z</time>
      </trkpt>
      <trkpt lat="44.64576" lon="3.56278">
        <ele>1399</ele>
        <time>2009-07-06T14:47:40Z</time>
      </trkpt>
      <trkpt lat="44.64626" lon="3.56281">
        <ele>1402</ele>
        <time>2009-07-06T14:47:58Z</time>
      </trkpt>
      <trkpt lat="44.64692" lon="3.56284">
        <ele>1404</ele>
        <time>2009-07-06T14:48:20Z</time>
      </trkpt>
      <trkpt lat="44.6476" lon="3.56281">
        <ele>1405</ele>
        <time>2009-07-06T14:48:42Z</time>
      </trkpt>
      <trkpt lat="44.64812" lon="3.56278">
        <ele>1406</ele>
        <time>2009-07-06T14:48:57Z</time>
      </trkpt>
      <trkpt lat="44.64879" lon="3.5628">
        <ele>1408</ele>
        <time>2009-07-06T14:49:16Z</time>
      </trkpt>
      <trkpt lat="44.64951" lon="3.56289">
        <ele>1408</ele>
        <time>2009-07-06T14:49:37Z</time>
      </trkpt>
      <trkpt lat="44.65029" lon="3.56298">
        <ele>1410</ele>
        <time>2009-07-06T14:49:59Z</time>
      </trkpt>
      <trkpt lat="44.65067" lon="3.56302">
        <ele>1412</ele>
        <time>2009-07-06T14:50:10Z</time>
      </trkpt>
      <trkpt lat="44.65126" lon="3.56307">
        <ele>1415</ele>
        <time>2009-07-06T14:50:27Z</time>
      </trkpt>
      <trkpt lat="44.65162" lon="3.56312">
        <ele>1415</ele>
        <time>2009-07-06T14:50:37Z</time>
      </trkpt>
      <trkpt lat="44.6521" lon="3.56322">
        <ele>1415</ele>
        <time>2009-07-06T14:50:50Z</time>
      </trkpt>
      <trkpt lat="44.65261" lon="3.56334">
        <ele>1415</ele>
        <time>2009-07-06T14:51:04Z</time>
      </trkpt>
      <trkpt lat="44.65287" lon="3.56336">
        <ele>1412</ele>
        <time>2009-07-06T14:51:09Z</time>
      </trkpt>
      <trkpt lat="44.65294" lon="3.56336">
        <ele>1413</ele>
        <time>2009-07-06T14:51:10Z</time>
      </trkpt>
      <trkpt lat="44.65332" lon="3.56346">
        <ele>1410</ele>
        <time>2009-07-06T14:51:17Z</time>
      </trkpt>
      <trkpt lat="44.65384" lon="3.56354">
        <ele>1408</ele>
        <time>2009-07-06T14:51:25Z</time>
      </trkpt>
      <trkpt lat="44.654" lon="3.56358">
        <ele>1410</ele>
        <time>2009-07-06T14:51:28Z</time>
      </trkpt>
      <trkpt lat="44.65433" lon="3.5637">
        <ele>1413</ele>
        <time>2009-07-06T14:51:37Z</time>
      </trkpt>
      <trkpt lat="44.65439" lon="3.56371">
        <ele>1414</ele>
        <time>2009-07-06T14:51:39Z</time>
      </trkpt>
      <trkpt lat="44.65476" lon="3.5638">
        <ele>1418</ele>
        <time>2009-07-06T14:51:54Z</time>
      </trkpt>
      <trkpt lat="44.65478" lon="3.56381">
        <ele>1418</ele>
        <time>2009-07-06T14:51:55Z</time>
      </trkpt>
      <trkpt lat="44.65508" lon="3.56387">
        <ele>1420</ele>
        <time>2009-07-06T14:52:11Z</time>
      </trkpt>
      <trkpt lat="44.65526" lon="3.56391">
        <ele>1422</ele>
        <time>2009-07-06T14:52:24Z</time>
      </trkpt>
      <trkpt lat="44.65558" lon="3.56402">
        <ele>1422</ele>
        <time>2009-07-06T14:52:37Z</time>
      </trkpt>
      <trkpt lat="44.65595" lon="3.56417">
        <ele>1422</ele>
        <time>2009-07-06T14:52:51Z</time>
      </trkpt>
      <trkpt lat="44.65605" lon="3.56423">
        <ele>1424</ele>
        <time>2009-07-06T14:53:03Z</time>
      </trkpt>
      <trkpt lat="44.65606" lon="3.56422">
        <ele>1422</ele>
        <time>2009-07-06T14:53:13Z</time>
      </trkpt>
      <trkpt lat="44.65606" lon="3.56422">
        <ele>1423</ele>
        <time>2009-07-06T14:53:50Z</time>
      </trkpt>
      <trkpt lat="44.65605" lon="3.56422">
        <ele>1424</ele>
        <time>2009-07-06T14:55:27Z</time>
      </trkpt>
      <trkpt lat="44.65606" lon="3.56422">
        <ele>1423</ele>
        <time>2009-07-06T14:55:57Z</time>
      </trkpt>
      <trkpt lat="44.65608" lon="3.56421">
        <ele>1423</ele>
        <time>2009-07-06T14:56:43Z</time>
      </trkpt>
      <trkpt lat="44.65628" lon="3.56434">
        <ele>1421</ele>
        <time>2009-07-06T14:56:58Z</time>
      </trkpt>
      <trkpt lat="44.65654" lon="3.56449">
        <ele>1420</ele>
        <time>2009-07-06T14:57:06Z</time>
      </trkpt>
      <trkpt lat="44.65697" lon="3.56473">
        <ele>1416</ele>
        <time>2009-07-06T14:57:16Z</time>
      </trkpt>
      <trkpt lat="44.65702" lon="3.56476">
        <ele>1415</ele>
        <time>2009-07-06T14:57:17Z</time>
      </trkpt>
      <trkpt lat="44.65719" lon="3.56483">
        <ele>1414</ele>
        <time>2009-07-06T14:57:20Z</time>
      </trkpt>
      <trkpt lat="44.65762" lon="3.56504">
        <ele>1410</ele>
        <time>2009-07-06T14:57:27Z</time>
      </trkpt>
      <trkpt lat="44.65783" lon="3.56514">
        <ele>1407</ele>
        <time>2009-07-06T14:57:30Z</time>
      </trkpt>
      <trkpt lat="44.65791" lon="3.56518">
        <ele>1406</ele>
        <time>2009-07-06T14:57:31Z</time>
      </trkpt>
      <trkpt lat="44.65805" lon="3.5653">
        <ele>1405</ele>
        <time>2009-07-06T14:57:33Z</time>
      </trkpt>
      <trkpt lat="44.65818" lon="3.56549">
        <ele>1404</ele>
        <time>2009-07-06T14:57:35Z</time>
      </trkpt>
      <trkpt lat="44.65846" lon="3.5659">
        <ele>1405</ele>
        <time>2009-07-06T14:57:40Z</time>
      </trkpt>
      <trkpt lat="44.65878" lon="3.56608">
        <ele>1410</ele>
        <time>2009-07-06T14:57:47Z</time>
      </trkpt>
      <trkpt lat="44.65883" lon="3.56609">
        <ele>1410</ele>
        <time>2009-07-06T14:57:48Z</time>
      </trkpt>
      <trkpt lat="44.65887" lon="3.5661">
        <ele>1410</ele>
        <time>2009-07-06T14:57:49Z</time>
      </trkpt>
      <trkpt lat="44.65944" lon="3.56616">
        <ele>1411</ele>
        <time>2009-07-06T14:58:03Z</time>
      </trkpt>
      <trkpt lat="44.65972" lon="3.56617">
        <ele>1411</ele>
        <time>2009-07-06T14:58:10Z</time>
      </trkpt>
      <trkpt lat="44.66005" lon="3.56642">
        <ele>1408</ele>
        <time>2009-07-06T14:58:16Z</time>
      </trkpt>
      <trkpt lat="44.66014" lon="3.56662">
        <ele>1407</ele>
        <time>2009-07-06T14:58:18Z</time>
      </trkpt>
      <trkpt lat="44.66022" lon="3.56698">
        <ele>1408</ele>
        <time>2009-07-06T14:58:22Z</time>
      </trkpt>
      <trkpt lat="44.66022" lon="3.56712">
        <ele>1409</ele>
        <time>2009-07-06T14:58:32Z</time>
      </trkpt>
      <trkpt lat="44.66023" lon="3.56713">
        <ele>1409</ele>
        <time>2009-07-06T14:58:46Z</time>
      </trkpt>
      <trkpt lat="44.66023" lon="3.56713">
        <ele>1408</ele>
        <time>2009-07-06T14:59:13Z</time>
      </trkpt>
      <trkpt lat="44.66025" lon="3.56715">
        <ele>1409</ele>
        <time>2009-07-06T14:59:46Z</time>
      </trkpt>
      <trkpt lat="44.66025" lon="3.5673">
        <ele>1409</ele>
        <time>2009-07-06T14:59:52Z</time>
      </trkpt>
      <trkpt lat="44.66027" lon="3.56772">
        <ele>1411</ele>
        <time>2009-07-06T15:00:07Z</time>
      </trkpt>
      <trkpt lat="44.66011" lon="3.56815">
        <ele>1414</ele>
        <time>2009-07-06T15:00:22Z</time>
      </trkpt>
      <trkpt lat="44.65981" lon="3.56853">
        <ele>1416</ele>
        <time>2009-07-06T15:00:37Z</time>
      </trkpt>
      <trkpt lat="44.65945" lon="3.56886">
        <ele>1419</ele>
        <time>2009-07-06T15:00:53Z</time>
      </trkpt>
      <trkpt lat="44.65903" lon="3.56933">
        <ele>1422</ele>
        <time>2009-07-06T15:01:11Z</time>
      </trkpt>
      <trkpt lat="44.65875" lon="3.56983">
        <ele>1426</ele>
        <time>2009-07-06T15:01:26Z</time>
      </trkpt>
      <trkpt lat="44.65852" lon="3.57052">
        <ele>1428</ele>
        <time>2009-07-06T15:01:43Z</time>
      </trkpt>
      <trkpt lat="44.65826" lon="3.57132">
        <ele>1428</ele>
        <time>2009-07-06T15:01:59Z</time>
      </trkpt>
      <trkpt lat="44.65783" lon="3.57228">
        <ele>1428</ele>
        <time>2009-07-06T15:02:17Z</time>
      </trkpt>
      <trkpt lat="44.65759" lon="3.57316">
        <ele>1427</ele>
        <time>2009-07-06T15:02:34Z</time>
      </trkpt>
      <trkpt lat="44.65757" lon="3.57368">
        <ele>1425</ele>
        <time>2009-07-06T15:02:42Z</time>
      </trkpt>
      <trkpt lat="44.6576" lon="3.57444">
        <ele>1422</ele>
        <time>2009-07-06T15:02:51Z</time>
      </trkpt>
      <trkpt lat="44.65756" lon="3.57517">
        <ele>1421</ele>
        <time>2009-07-06T15:03:02Z</time>
      </trkpt>
      <trkpt lat="44.65751" lon="3.57559">
        <ele>1419</ele>
        <time>2009-07-06T15:03:15Z</time>
      </trkpt>
      <trkpt lat="44.65739" lon="3.57645">
        <ele>1419</ele>
        <time>2009-07-06T15:03:27Z</time>
      </trkpt>
      <trkpt lat="44.65737" lon="3.57667">
        <ele>1419</ele>
        <time>2009-07-06T15:03:31Z</time>
      </trkpt>
      <trkpt lat="44.65724" lon="3.57784">
        <ele>1418</ele>
        <time>2009-07-06T15:03:46Z</time>
      </trkpt>
      <trkpt lat="44.65716" lon="3.57835">
        <ele>1418</ele>
        <time>2009-07-06T15:03:53Z</time>
      </trkpt>
      <trkpt lat="44.65696" lon="3.57891">
        <ele>1419</ele>
        <time>2009-07-06T15:04:06Z</time>
      </trkpt>
      <trkpt lat="44.65676" lon="3.57934">
        <ele>1420</ele>
        <time>2009-07-06T15:04:19Z</time>
      </trkpt>
      <trkpt lat="44.65644" lon="3.57986">
        <ele>1421</ele>
        <time>2009-07-06T15:04:34Z</time>
      </trkpt>
      <trkpt lat="44.65622" lon="3.58035">
        <ele>1422</ele>
        <time>2009-07-06T15:04:47Z</time>
      </trkpt>
      <trkpt lat="44.65628" lon="3.58047">
        <ele>1423</ele>
        <time>2009-07-06T15:04:53Z</time>
      </trkpt>
      <trkpt lat="44.65636" lon="3.58053">
        <ele>1425</ele>
        <time>2009-07-06T15:05:08Z</time>
      </trkpt>
      <trkpt lat="44.65637" lon="3.58055">
        <ele>1424</ele>
        <time>2009-07-06T15:05:27Z</time>
      </trkpt>
      <trkpt lat="44.65644" lon="3.5808">
        <ele>1426</ele>
        <time>2009-07-06T15:05:41Z</time>
      </trkpt>
      <trkpt lat="44.65651" lon="3.58091">
        <ele>1426</ele>
        <time>2009-07-06T15:05:51Z</time>
      </trkpt>
      <trkpt lat="44.65664" lon="3.58119">
        <ele>1427</ele>
        <time>2009-07-06T15:06:05Z</time>
      </trkpt>
      <trkpt lat="44.65674" lon="3.5814">
        <ele>1429</ele>
        <time>2009-07-06T15:06:20Z</time>
      </trkpt>
      <trkpt lat="44.65676" lon="3.58141">
        <ele>1429</ele>
        <time>2009-07-06T15:06:21Z</time>
      </trkpt>
      <trkpt lat="44.65682" lon="3.58152">
        <ele>1430</ele>
        <time>2009-07-06T15:06:26Z</time>
      </trkpt>
      <trkpt lat="44.65694" lon="3.58164">
        <ele>1430</ele>
        <time>2009-07-06T15:06:39Z</time>
      </trkpt>
      <trkpt lat="44.65699" lon="3.58176">
        <ele>1430</ele>
        <time>2009-07-06T15:06:54Z</time>
      </trkpt>
      <trkpt lat="44.65707" lon="3.58191">
        <ele>1432</ele>
        <time>2009-07-06T15:07:01Z</time>
      </trkpt>
      <trkpt lat="44.65719" lon="3.58219">
        <ele>1433</ele>
        <time>2009-07-06T15:07:14Z</time>
      </trkpt>
      <trkpt lat="44.65723" lon="3.58227">
        <ele>1433</ele>
        <time>2009-07-06T15:07:18Z</time>
      </trkpt>
      <trkpt lat="44.65734" lon="3.58253">
        <ele>1433</ele>
        <time>2009-07-06T15:07:31Z</time>
      </trkpt>
      <trkpt lat="44.65739" lon="3.58262">
        <ele>1433</ele>
        <time>2009-07-06T15:07:35Z</time>
      </trkpt>
      <trkpt lat="44.65741" lon="3.58269">
        <ele>1433</ele>
        <time>2009-07-06T15:07:39Z</time>
      </trkpt>
      <trkpt lat="44.65749" lon="3.58282">
        <ele>1434</ele>
        <time>2009-07-06T15:07:47Z</time>
      </trkpt>
      <trkpt lat="44.65771" lon="3.58321">
        <ele>1433</ele>
        <time>2009-07-06T15:08:02Z</time>
      </trkpt>
      <trkpt lat="44.65788" lon="3.58358">
        <ele>1432</ele>
        <time>2009-07-06T15:08:16Z</time>
      </trkpt>
      <trkpt lat="44.65796" lon="3.58374">
        <ele>1431</ele>
        <time>2009-07-06T15:08:27Z</time>
      </trkpt>
      <trkpt lat="44.65801" lon="3.58392">
        <ele>1430</ele>
        <time>2009-07-06T15:08:43Z</time>
      </trkpt>
      <trkpt lat="44.65801" lon="3.58395">
        <ele>1430</ele>
        <time>2009-07-06T15:08:44Z</time>
      </trkpt>
      <trkpt lat="44.65813" lon="3.58417">
        <ele>1429</ele>
        <time>2009-07-06T15:08:55Z</time>
      </trkpt>
      <trkpt lat="44.65816" lon="3.58417">
        <ele>1428</ele>
        <time>2009-07-06T15:09:38Z</time>
      </trkpt>
      <trkpt lat="44.65816" lon="3.58416">
        <ele>1428</ele>
        <time>2009-07-06T15:09:56Z</time>
      </trkpt>
      <trkpt lat="44.65812" lon="3.58426">
        <ele>1428</ele>
        <time>2009-07-06T15:10:02Z</time>
      </trkpt>
      <trkpt lat="44.65803" lon="3.58453">
        <ele>1427</ele>
        <time>2009-07-06T15:10:14Z</time>
      </trkpt>
      <trkpt lat="44.65799" lon="3.58466">
        <ele>1427</ele>
        <time>2009-07-06T15:10:24Z</time>
      </trkpt>
      <trkpt lat="44.65799" lon="3.58459">
        <ele>1426</ele>
        <time>2009-07-06T15:11:12Z</time>
      </trkpt>
      <trkpt lat="44.65801" lon="3.58455">
        <ele>1427</ele>
        <time>2009-07-06T15:11:30Z</time>
      </trkpt>
      <trkpt lat="44.65803" lon="3.58453">
        <ele>1427</ele>
        <time>2009-07-06T15:11:50Z</time>
      </trkpt>
      <trkpt lat="44.65809" lon="3.5843">
        <ele>1428</ele>
        <time>2009-07-06T15:11:59Z</time>
      </trkpt>
      <trkpt lat="44.6582" lon="3.58416">
        <ele>1430</ele>
        <time>2009-07-06T15:12:13Z</time>
      </trkpt>
      <trkpt lat="44.65819" lon="3.58416">
        <ele>1429</ele>
        <time>2009-07-06T15:12:23Z</time>
      </trkpt>
      <trkpt lat="44.65814" lon="3.58418">
        <ele>1430</ele>
        <time>2009-07-06T15:12:30Z</time>
      </trkpt>
      <trkpt lat="44.65804" lon="3.58449">
        <ele>1428</ele>
        <time>2009-07-06T15:12:41Z</time>
      </trkpt>
      <trkpt lat="44.65797" lon="3.58475">
        <ele>1426</ele>
        <time>2009-07-06T15:12:52Z</time>
      </trkpt>
      <trkpt lat="44.65795" lon="3.58476">
        <ele>1428</ele>
        <time>2009-07-06T15:13:32Z</time>
      </trkpt>
      <trkpt lat="44.65801" lon="3.58477">
        <ele>1427</ele>
        <time>2009-07-06T15:14:36Z</time>
      </trkpt>
      <trkpt lat="44.65797" lon="3.58475">
        <ele>1426</ele>
        <time>2009-07-06T15:15:02Z</time>
      </trkpt>
      <trkpt lat="44.65798" lon="3.5847">
        <ele>1427</ele>
        <time>2009-07-06T15:15:26Z</time>
      </trkpt>
      <trkpt lat="44.65799" lon="3.58465">
        <ele>1426</ele>
        <time>2009-07-06T15:16:12Z</time>
      </trkpt>
      <trkpt lat="44.65799" lon="3.58468">
        <ele>1427</ele>
        <time>2009-07-06T15:16:52Z</time>
      </trkpt>
      <trkpt lat="44.658" lon="3.58464">
        <ele>1428</ele>
        <time>2009-07-06T15:17:53Z</time>
      </trkpt>
      <trkpt lat="44.65797" lon="3.58471">
        <ele>1426</ele>
        <time>2009-07-06T15:18:05Z</time>
      </trkpt>
      <trkpt lat="44.65797" lon="3.58472">
        <ele>1426</ele>
        <time>2009-07-06T15:18:06Z</time>
      </trkpt>
      <trkpt lat="44.65799" lon="3.58487">
        <ele>1426</ele>
        <time>2009-07-06T15:18:18Z</time>
      </trkpt>
      <trkpt lat="44.65803" lon="3.58499">
        <ele>1423</ele>
        <time>2009-07-06T15:18:28Z</time>
      </trkpt>
      <trkpt lat="44.65809" lon="3.58507">
        <ele>1422</ele>
        <time>2009-07-06T15:18:39Z</time>
      </trkpt>
      <trkpt lat="44.6581" lon="3.58519">
        <ele>1421</ele>
        <time>2009-07-06T15:18:51Z</time>
      </trkpt>
      <trkpt lat="44.65816" lon="3.58532">
        <ele>1420</ele>
        <time>2009-07-06T15:19:04Z</time>
      </trkpt>
      <trkpt lat="44.65817" lon="3.58534">
        <ele>1420</ele>
        <time>2009-07-06T15:19:06Z</time>
      </trkpt>
      <trkpt lat="44.65819" lon="3.58539">
        <ele>1419</ele>
        <time>2009-07-06T15:19:09Z</time>
      </trkpt>
      <trkpt lat="44.65824" lon="3.58546">
        <ele>1418</ele>
        <time>2009-07-06T15:19:14Z</time>
      </trkpt>
      <trkpt lat="44.65834" lon="3.58555">
        <ele>1416</ele>
        <time>2009-07-06T15:19:19Z</time>
      </trkpt>
      <trkpt lat="44.65837" lon="3.58562">
        <ele>1415</ele>
        <time>2009-07-06T15:19:22Z</time>
      </trkpt>
      <trkpt lat="44.65837" lon="3.58568">
        <ele>1414</ele>
        <time>2009-07-06T15:19:32Z</time>
      </trkpt>
      <trkpt lat="44.65838" lon="3.5857">
        <ele>1415</ele>
        <time>2009-07-06T15:19:40Z</time>
      </trkpt>
      <trkpt lat="44.65838" lon="3.5857">
        <ele>1414</ele>
        <time>2009-07-06T15:19:42Z</time>
      </trkpt>
      <trkpt lat="44.65839" lon="3.58573">
        <ele>1414</ele>
        <time>2009-07-06T15:20:10Z</time>
      </trkpt>
      <trkpt lat="44.6584" lon="3.58572">
        <ele>1414</ele>
        <time>2009-07-06T15:20:16Z</time>
      </trkpt>
      <trkpt lat="44.65842" lon="3.58578">
        <ele>1414</ele>
        <time>2009-07-06T15:20:47Z</time>
      </trkpt>
      <trkpt lat="44.65845" lon="3.58585">
        <ele>1412</ele>
        <time>2009-07-06T15:20:57Z</time>
      </trkpt>
      <trkpt lat="44.6584" lon="3.58596">
        <ele>1411</ele>
        <time>2009-07-06T15:21:09Z</time>
      </trkpt>
      <trkpt lat="44.6584" lon="3.586">
        <ele>1410</ele>
        <time>2009-07-06T15:21:14Z</time>
      </trkpt>
      <trkpt lat="44.65841" lon="3.58603">
        <ele>1410</ele>
        <time>2009-07-06T15:21:27Z</time>
      </trkpt>
      <trkpt lat="44.65843" lon="3.58606">
        <ele>1410</ele>
        <time>2009-07-06T15:21:41Z</time>
      </trkpt>
      <trkpt lat="44.65846" lon="3.58607">
        <ele>1410</ele>
        <time>2009-07-06T15:21:45Z</time>
      </trkpt>
      <trkpt lat="44.65859" lon="3.5861">
        <ele>1409</ele>
        <time>2009-07-06T15:22:02Z</time>
      </trkpt>
      <trkpt lat="44.65859" lon="3.58611">
        <ele>1409</ele>
        <time>2009-07-06T15:22:04Z</time>
      </trkpt>
      <trkpt lat="44.65863" lon="3.5862">
        <ele>1409</ele>
        <time>2009-07-06T15:22:20Z</time>
      </trkpt>
      <trkpt lat="44.65865" lon="3.5861">
        <ele>1409</ele>
        <time>2009-07-06T15:22:30Z</time>
      </trkpt>
      <trkpt lat="44.65868" lon="3.58604">
        <ele>1409</ele>
        <time>2009-07-06T15:22:38Z</time>
      </trkpt>
      <trkpt lat="44.65877" lon="3.58603">
        <ele>1408</ele>
        <time>2009-07-06T15:22:46Z</time>
      </trkpt>
      <trkpt lat="44.6588" lon="3.58603">
        <ele>1408</ele>
        <time>2009-07-06T15:22:48Z</time>
      </trkpt>
      <trkpt lat="44.65893" lon="3.58612">
        <ele>1406</ele>
        <time>2009-07-06T15:23:04Z</time>
      </trkpt>
      <trkpt lat="44.65897" lon="3.58614">
        <ele>1406</ele>
        <time>2009-07-06T15:23:09Z</time>
      </trkpt>
      <trkpt lat="44.65904" lon="3.58614">
        <ele>1406</ele>
        <time>2009-07-06T15:23:20Z</time>
      </trkpt>
      <trkpt lat="44.65906" lon="3.58616">
        <ele>1406</ele>
        <time>2009-07-06T15:23:22Z</time>
      </trkpt>
      <trkpt lat="44.65914" lon="3.58617">
        <ele>1405</ele>
        <time>2009-07-06T15:23:35Z</time>
      </trkpt>
      <trkpt lat="44.65919" lon="3.58626">
        <ele>1404</ele>
        <time>2009-07-06T15:23:49Z</time>
      </trkpt>
      <trkpt lat="44.65922" lon="3.58629">
        <ele>1403</ele>
        <time>2009-07-06T15:24:05Z</time>
      </trkpt>
      <trkpt lat="44.65925" lon="3.58631">
        <ele>1404</ele>
        <time>2009-07-06T15:24:17Z</time>
      </trkpt>
      <trkpt lat="44.65927" lon="3.5863">
        <ele>1403</ele>
        <time>2009-07-06T15:24:33Z</time>
      </trkpt>
      <trkpt lat="44.6593" lon="3.58626">
        <ele>1403</ele>
        <time>2009-07-06T15:24:40Z</time>
      </trkpt>
      <trkpt lat="44.65935" lon="3.5862">
        <ele>1403</ele>
        <time>2009-07-06T15:24:51Z</time>
      </trkpt>
      <trkpt lat="44.65942" lon="3.58623">
        <ele>1403</ele>
        <time>2009-07-06T15:25:05Z</time>
      </trkpt>
      <trkpt lat="44.65952" lon="3.5862">
        <ele>1403</ele>
        <time>2009-07-06T15:25:19Z</time>
      </trkpt>
      <trkpt lat="44.65954" lon="3.58621">
        <ele>1402</ele>
        <time>2009-07-06T15:25:26Z</time>
      </trkpt>
      <trkpt lat="44.65961" lon="3.58618">
        <ele>1402</ele>
        <time>2009-07-06T15:25:39Z</time>
      </trkpt>
      <trkpt lat="44.65961" lon="3.58618">
        <ele>1402</ele>
        <time>2009-07-06T15:25:41Z</time>
      </trkpt>
      <trkpt lat="44.65966" lon="3.58609">
        <ele>1402</ele>
        <time>2009-07-06T15:25:53Z</time>
      </trkpt>
      <trkpt lat="44.65974" lon="3.58603">
        <ele>1402</ele>
        <time>2009-07-06T15:25:58Z</time>
      </trkpt>
      <trkpt lat="44.66006" lon="3.58575">
        <ele>1401</ele>
        <time>2009-07-06T15:26:14Z</time>
      </trkpt>
      <trkpt lat="44.66009" lon="3.58573">
        <ele>1401</ele>
        <time>2009-07-06T15:26:26Z</time>
      </trkpt>
      <trkpt lat="44.66012" lon="3.58573">
        <ele>1401</ele>
        <time>2009-07-06T15:26:50Z</time>
      </trkpt>
      <trkpt lat="44.6601" lon="3.5857">
        <ele>1402</ele>
        <time>2009-07-06T15:27:01Z</time>
      </trkpt>
      <trkpt lat="44.66014" lon="3.5857">
        <ele>1400</ele>
        <time>2009-07-06T15:27:13Z</time>
      </trkpt>
      <trkpt lat="44.66015" lon="3.58566">
        <ele>1400</ele>
        <time>2009-07-06T15:27:32Z</time>
      </trkpt>
      <trkpt lat="44.66016" lon="3.58566">
        <ele>1400</ele>
        <time>2009-07-06T15:27:35Z</time>
      </trkpt>
      <trkpt lat="44.66047" lon="3.58559">
        <ele>1400</ele>
        <time>2009-07-06T15:27:51Z</time>
      </trkpt>
      <trkpt lat="44.66072" lon="3.58556">
        <ele>1401</ele>
        <time>2009-07-06T15:28:05Z</time>
      </trkpt>
      <trkpt lat="44.66076" lon="3.58557">
        <ele>1400</ele>
        <time>2009-07-06T15:28:17Z</time>
      </trkpt>
      <trkpt lat="44.66087" lon="3.58559">
        <ele>1399</ele>
        <time>2009-07-06T15:28:26Z</time>
      </trkpt>
      <trkpt lat="44.66107" lon="3.58569">
        <ele>1400</ele>
        <time>2009-07-06T15:28:37Z</time>
      </trkpt>
      <trkpt lat="44.66118" lon="3.58568">
        <ele>1399</ele>
        <time>2009-07-06T15:28:48Z</time>
      </trkpt>
      <trkpt lat="44.66119" lon="3.58568">
        <ele>1400</ele>
        <time>2009-07-06T15:29:12Z</time>
      </trkpt>
      <trkpt lat="44.6612" lon="3.58567">
        <ele>1400</ele>
        <time>2009-07-06T15:30:06Z</time>
      </trkpt>
      <trkpt lat="44.6612" lon="3.58566">
        <ele>1400</ele>
        <time>2009-07-06T15:30:52Z</time>
      </trkpt>
      <trkpt lat="44.6612" lon="3.58568">
        <ele>1400</ele>
        <time>2009-07-06T15:31:26Z</time>
      </trkpt>
      <trkpt lat="44.6612" lon="3.58568">
        <ele>1400</ele>
        <time>2009-07-06T15:31:44Z</time>
      </trkpt>
      <trkpt lat="44.66145" lon="3.58568">
        <ele>1400</ele>
        <time>2009-07-06T15:31:58Z</time>
      </trkpt>
      <trkpt lat="44.66175" lon="3.58567">
        <ele>1399</ele>
        <time>2009-07-06T15:32:12Z</time>
      </trkpt>
      <trkpt lat="44.66195" lon="3.5857">
        <ele>1396</ele>
        <time>2009-07-06T15:32:19Z</time>
      </trkpt>
      <trkpt lat="44.66202" lon="3.58571">
        <ele>1395</ele>
        <time>2009-07-06T15:32:21Z</time>
      </trkpt>
      <trkpt lat="44.66205" lon="3.58571">
        <ele>1395</ele>
        <time>2009-07-06T15:32:22Z</time>
      </trkpt>
      <trkpt lat="44.66213" lon="3.58564">
        <ele>1395</ele>
        <time>2009-07-06T15:32:26Z</time>
      </trkpt>
      <trkpt lat="44.66232" lon="3.58545">
        <ele>1392</ele>
        <time>2009-07-06T15:32:36Z</time>
      </trkpt>
      <trkpt lat="44.66239" lon="3.58536">
        <ele>1391</ele>
        <time>2009-07-06T15:32:46Z</time>
      </trkpt>
      <trkpt lat="44.66243" lon="3.58539">
        <ele>1391</ele>
        <time>2009-07-06T15:32:58Z</time>
      </trkpt>
      <trkpt lat="44.66251" lon="3.58541">
        <ele>1389</ele>
        <time>2009-07-06T15:33:06Z</time>
      </trkpt>
      <trkpt lat="44.66271" lon="3.58507">
        <ele>1389</ele>
        <time>2009-07-06T15:33:19Z</time>
      </trkpt>
      <trkpt lat="44.66296" lon="3.58486">
        <ele>1388</ele>
        <time>2009-07-06T15:33:31Z</time>
      </trkpt>
      <trkpt lat="44.66328" lon="3.58476">
        <ele>1385</ele>
        <time>2009-07-06T15:33:44Z</time>
      </trkpt>
      <trkpt lat="44.66343" lon="3.58478">
        <ele>1384</ele>
        <time>2009-07-06T15:33:49Z</time>
      </trkpt>
      <trkpt lat="44.6638" lon="3.58478">
        <ele>1383</ele>
        <time>2009-07-06T15:34:02Z</time>
      </trkpt>
      <trkpt lat="44.66417" lon="3.58481">
        <ele>1382</ele>
        <time>2009-07-06T15:34:16Z</time>
      </trkpt>
      <trkpt lat="44.66421" lon="3.58482">
        <ele>1382</ele>
        <time>2009-07-06T15:34:18Z</time>
      </trkpt>
      <trkpt lat="44.66432" lon="3.58479">
        <ele>1381</ele>
        <time>2009-07-06T15:34:30Z</time>
      </trkpt>
      <trkpt lat="44.66434" lon="3.5848">
        <ele>1382</ele>
        <time>2009-07-06T15:34:46Z</time>
      </trkpt>
      <trkpt lat="44.66434" lon="3.58482">
        <ele>1382</ele>
        <time>2009-07-06T15:35:01Z</time>
      </trkpt>
      <trkpt lat="44.66436" lon="3.58481">
        <ele>1382</ele>
        <time>2009-07-06T15:35:12Z</time>
      </trkpt>
      <trkpt lat="44.66442" lon="3.58476">
        <ele>1381</ele>
        <time>2009-07-06T15:35:25Z</time>
      </trkpt>
      <trkpt lat="44.66448" lon="3.58469">
        <ele>1382</ele>
        <time>2009-07-06T15:35:34Z</time>
      </trkpt>
      <trkpt lat="44.66453" lon="3.58455">
        <ele>1382</ele>
        <time>2009-07-06T15:35:44Z</time>
      </trkpt>
      <trkpt lat="44.66452" lon="3.58449">
        <ele>1382</ele>
        <time>2009-07-06T15:35:49Z</time>
      </trkpt>
      <trkpt lat="44.66463" lon="3.58429">
        <ele>1382</ele>
        <time>2009-07-06T15:36:05Z</time>
      </trkpt>
      <trkpt lat="44.66477" lon="3.58407">
        <ele>1382</ele>
        <time>2009-07-06T15:36:23Z</time>
      </trkpt>
      <trkpt lat="44.66489" lon="3.58386">
        <ele>1382</ele>
        <time>2009-07-06T15:36:41Z</time>
      </trkpt>
      <trkpt lat="44.66497" lon="3.58364">
        <ele>1383</ele>
        <time>2009-07-06T15:36:55Z</time>
      </trkpt>
      <trkpt lat="44.66507" lon="3.58334">
        <ele>1382</ele>
        <time>2009-07-06T15:37:14Z</time>
      </trkpt>
      <trkpt lat="44.66526" lon="3.58332">
        <ele>1382</ele>
        <time>2009-07-06T15:37:30Z</time>
      </trkpt>
      <trkpt lat="44.66526" lon="3.58332">
        <ele>1382</ele>
        <time>2009-07-06T15:37:31Z</time>
      </trkpt>
      <trkpt lat="44.66521" lon="3.58351">
        <ele>1382</ele>
        <time>2009-07-06T15:37:45Z</time>
      </trkpt>
      <trkpt lat="44.66519" lon="3.58355">
        <ele>1382</ele>
        <time>2009-07-06T15:38:00Z</time>
      </trkpt>
      <trkpt lat="44.6652" lon="3.58351">
        <ele>1383</ele>
        <time>2009-07-06T15:38:26Z</time>
      </trkpt>
      <trkpt lat="44.66526" lon="3.58339">
        <ele>1382</ele>
        <time>2009-07-06T15:38:47Z</time>
      </trkpt>
      <trkpt lat="44.66531" lon="3.58339">
        <ele>1382</ele>
        <time>2009-07-06T15:38:57Z</time>
      </trkpt>
      <trkpt lat="44.66531" lon="3.58339">
        <ele>1382</ele>
        <time>2009-07-06T15:39:03Z</time>
      </trkpt>
      <trkpt lat="44.6655" lon="3.58373">
        <ele>1382</ele>
        <time>2009-07-06T15:39:17Z</time>
      </trkpt>
      <trkpt lat="44.66588" lon="3.5845">
        <ele>1381</ele>
        <time>2009-07-06T15:39:36Z</time>
      </trkpt>
      <trkpt lat="44.66602" lon="3.58472">
        <ele>1377</ele>
        <time>2009-07-06T15:39:42Z</time>
      </trkpt>
      <trkpt lat="44.6661" lon="3.5848">
        <ele>1376</ele>
        <time>2009-07-06T15:39:52Z</time>
      </trkpt>
      <trkpt lat="44.66623" lon="3.58495">
        <ele>1374</ele>
        <time>2009-07-06T15:40:01Z</time>
      </trkpt>
      <trkpt lat="44.66629" lon="3.58504">
        <ele>1374</ele>
        <time>2009-07-06T15:40:04Z</time>
      </trkpt>
      <trkpt lat="44.66647" lon="3.58523">
        <ele>1372</ele>
        <time>2009-07-06T15:40:09Z</time>
      </trkpt>
      <trkpt lat="44.6666" lon="3.58533">
        <ele>1370</ele>
        <time>2009-07-06T15:40:12Z</time>
      </trkpt>
      <trkpt lat="44.66676" lon="3.58546">
        <ele>1367</ele>
        <time>2009-07-06T15:40:15Z</time>
      </trkpt>
      <trkpt lat="44.66689" lon="3.58563">
        <ele>1363</ele>
        <time>2009-07-06T15:40:18Z</time>
      </trkpt>
      <trkpt lat="44.667" lon="3.58586">
        <ele>1362</ele>
        <time>2009-07-06T15:40:21Z</time>
      </trkpt>
      <trkpt lat="44.66703" lon="3.58605">
        <ele>1360</ele>
        <time>2009-07-06T15:40:23Z</time>
      </trkpt>
      <trkpt lat="44.66706" lon="3.5863">
        <ele>1357</ele>
        <time>2009-07-06T15:40:26Z</time>
      </trkpt>
      <trkpt lat="44.66705" lon="3.58675">
        <ele>1352</ele>
        <time>2009-07-06T15:40:31Z</time>
      </trkpt>
      <trkpt lat="44.66704" lon="3.58696">
        <ele>1349</ele>
        <time>2009-07-06T15:40:33Z</time>
      </trkpt>
      <trkpt lat="44.66706" lon="3.58741">
        <ele>1344</ele>
        <time>2009-07-06T15:40:37Z</time>
      </trkpt>
      <trkpt lat="44.66706" lon="3.58792">
        <ele>1340</ele>
        <time>2009-07-06T15:40:42Z</time>
      </trkpt>
      <trkpt lat="44.66708" lon="3.58812">
        <ele>1338</ele>
        <time>2009-07-06T15:40:44Z</time>
      </trkpt>
      <trkpt lat="44.66711" lon="3.58867">
        <ele>1332</ele>
        <time>2009-07-06T15:40:49Z</time>
      </trkpt>
      <trkpt lat="44.66712" lon="3.58893">
        <ele>1330</ele>
        <time>2009-07-06T15:40:51Z</time>
      </trkpt>
      <trkpt lat="44.6671" lon="3.58931">
        <ele>1329</ele>
        <time>2009-07-06T15:40:54Z</time>
      </trkpt>
      <trkpt lat="44.66703" lon="3.58995">
        <ele>1325</ele>
        <time>2009-07-06T15:40:59Z</time>
      </trkpt>
      <trkpt lat="44.66703" lon="3.59034">
        <ele>1322</ele>
        <time>2009-07-06T15:41:02Z</time>
      </trkpt>
      <trkpt lat="44.66699" lon="3.59077">
        <ele>1317</ele>
        <time>2009-07-06T15:41:06Z</time>
      </trkpt>
      <trkpt lat="44.66699" lon="3.59087">
        <ele>1316</ele>
        <time>2009-07-06T15:41:07Z</time>
      </trkpt>
      <trkpt lat="44.667" lon="3.59121">
        <ele>1312</ele>
        <time>2009-07-06T15:41:10Z</time>
      </trkpt>
      <trkpt lat="44.667" lon="3.5917">
        <ele>1309</ele>
        <time>2009-07-06T15:41:14Z</time>
      </trkpt>
      <trkpt lat="44.66697" lon="3.59226">
        <ele>1305</ele>
        <time>2009-07-06T15:41:19Z</time>
      </trkpt>
      <trkpt lat="44.66696" lon="3.59235">
        <ele>1303</ele>
        <time>2009-07-06T15:41:20Z</time>
      </trkpt>
      <trkpt lat="44.66706" lon="3.59262">
        <ele>1299</ele>
        <time>2009-07-06T15:41:24Z</time>
      </trkpt>
      <trkpt lat="44.66713" lon="3.59266">
        <ele>1298</ele>
        <time>2009-07-06T15:41:25Z</time>
      </trkpt>
      <trkpt lat="44.66729" lon="3.59273">
        <ele>1297</ele>
        <time>2009-07-06T15:41:27Z</time>
      </trkpt>
      <trkpt lat="44.66745" lon="3.59281">
        <ele>1295</ele>
        <time>2009-07-06T15:41:29Z</time>
      </trkpt>
      <trkpt lat="44.66764" lon="3.59297">
        <ele>1293</ele>
        <time>2009-07-06T15:41:32Z</time>
      </trkpt>
      <trkpt lat="44.66772" lon="3.59311">
        <ele>1292</ele>
        <time>2009-07-06T15:41:34Z</time>
      </trkpt>
      <trkpt lat="44.6677" lon="3.59332">
        <ele>1290</ele>
        <time>2009-07-06T15:41:37Z</time>
      </trkpt>
      <trkpt lat="44.66743" lon="3.59389">
        <ele>1288</ele>
        <time>2009-07-06T15:41:51Z</time>
      </trkpt>
      <trkpt lat="44.66741" lon="3.59427">
        <ele>1287</ele>
        <time>2009-07-06T15:42:01Z</time>
      </trkpt>
      <trkpt lat="44.66745" lon="3.59448">
        <ele>1287</ele>
        <time>2009-07-06T15:42:06Z</time>
      </trkpt>
      <trkpt lat="44.66761" lon="3.59484">
        <ele>1287</ele>
        <time>2009-07-06T15:42:14Z</time>
      </trkpt>
      <trkpt lat="44.66778" lon="3.5953">
        <ele>1286</ele>
        <time>2009-07-06T15:42:24Z</time>
      </trkpt>
      <trkpt lat="44.66774" lon="3.59586">
        <ele>1286</ele>
        <time>2009-07-06T15:42:39Z</time>
      </trkpt>
      <trkpt lat="44.66764" lon="3.59646">
        <ele>1286</ele>
        <time>2009-07-06T15:42:51Z</time>
      </trkpt>
      <trkpt lat="44.66786" lon="3.59664">
        <ele>1287</ele>
        <time>2009-07-06T15:43:00Z</time>
      </trkpt>
      <trkpt lat="44.6681" lon="3.59665">
        <ele>1290</ele>
        <time>2009-07-06T15:43:09Z</time>
      </trkpt>
      <trkpt lat="44.66813" lon="3.59669">
        <ele>1291</ele>
        <time>2009-07-06T15:43:11Z</time>
      </trkpt>
      <trkpt lat="44.6682" lon="3.59675">
        <ele>1292</ele>
        <time>2009-07-06T15:43:21Z</time>
      </trkpt>
      <trkpt lat="44.66819" lon="3.5967">
        <ele>1292</ele>
        <time>2009-07-06T15:43:35Z</time>
      </trkpt>
    </trkseg>
  </trk>
</gpx>